Observation data for New Home on 11/11/2019      Previous  Date       Current Mesonet Observations  Soil Data  Daily Summary Page  Observations in Plain Language
KNH1 110600Z 22009KT 13/11 A299 RMK A01 T01250106  RH  088%=      5-min Rain = 0
KNH1 110601Z 22008KT 13/11 A299 RMK A01 T01250106  RH  088%=      5-min Rain = 0
KNH1 110602Z 23008KT 13/11 A299 RMK A01 T01250106  RH  088%=      5-min Rain = 0
KNH1 110603Z 22008KT 13/11 A299 RMK A01 T01260106  RH  088%=      5-min Rain = 0
KNH1 110604Z 22008KT 13/11 A299 RMK A01 T01260106  RH  088%=      5-min Rain = 0
KNH1 110605Z 22008KT 13/11 A299 RMK A01 T01260106  RH  088%=      5-min Rain = 0
KNH1 110606Z 22008KT 13/11 A299 RMK A01 T01260106  RH  088%=      5-min Rain = 0
KNH1 110607Z 22008KT 13/11 A299 RMK A01 T01250106  RH  088%=      5-min Rain = 0
KNH1 110608Z 22007KT 13/11 A299 RMK A01 T01250105  RH  088%=      5-min Rain = 0
KNH1 110609Z 21006KT 12/11 A299 RMK A01 T01240105  RH  088%=      5-min Rain = 0
KNH1 110610Z 21007KT 12/11 A299 RMK A01 T01240105  RH  088%=      5-min Rain = 0
KNH1 110611Z 22006KT 12/11 A299 RMK A01 T01230105  RH  089%=      5-min Rain = 0
KNH1 110612Z 21007KT 12/11 A299 RMK A01 T01230105  RH  089%=      5-min Rain = 0
KNH1 110613Z 21007KT 12/10 A299 RMK A01 T01220104  RH  089%=      5-min Rain = 0
KNH1 110614Z 21008KT 12/10 A299 RMK A01 T01210104  RH  089%=      5-min Rain = 0
KNH1 110615Z 21007KT 12/10 A299 RMK A01 T01210104  RH  089%=      5-min Rain = 0
KNH1 110616Z 21008KT 12/10 A299 RMK A01 T01210104  RH  089%=      5-min Rain = 0
KNH1 110617Z 22008KT 12/10 A299 RMK A01 T01220104  RH  089%=      5-min Rain = 0
KNH1 110618Z 22008KT 12/10 A299 RMK A01 T01220104  RH  089%=      5-min Rain = 0
KNH1 110619Z 22008KT 12/10 A299 RMK A01 T01220104  RH  088%=      5-min Rain = 0
KNH1 110620Z 21007KT 12/10 A299 RMK A01 T01230104  RH  088%=      5-min Rain = 0
KNH1 110621Z 22007KT 12/10 A2989 RMK A01 T01220104  RH  088%=      5-min Rain = 0
KNH1 110622Z 22007KT 12/10 A2989 RMK A01 T01220104  RH  088%=      5-min Rain = 0
KNH1 110623Z 22006KT 12/10 A2989 RMK A01 T01220104  RH  088%=      5-min Rain = 0
KNH1 110624Z 22007KT 12/10 A2989 RMK A01 T01220104  RH  088%=      5-min Rain = 0
KNH1 110625Z 22006KT 12/10 A2989 RMK A01 T01220103  RH  088%=      5-min Rain = 0
KNH1 110626Z 22006KT 12/10 A2989 RMK A01 T01220103  RH  088%=      5-min Rain = 0
KNH1 110627Z 23006KT 12/10 A2989 RMK A01 T01220103  RH  089%=      5-min Rain = 0
KNH1 110628Z 23007KT 12/10 A2989 RMK A01 T01220103  RH  089%=      5-min Rain = 0
KNH1 110629Z 23007KT 12/10 A2989 RMK A01 T01220104  RH  089%=      5-min Rain = 0
KNH1 110630Z 23007KT 12/10 A2989 RMK A01 T01210103  RH  089%=      5-min Rain = 0
KNH1 110631Z 23007KT 12/10 A2989 RMK A01 T01220103  RH  088%=      5-min Rain = 0
KNH1 110632Z 23008KT 12/10 A2989 RMK A01 T01220103  RH  088%=      5-min Rain = 0
KNH1 110633Z 23008KT 12/10 A2989 RMK A01 T01220103  RH  088%=      5-min Rain = 0
KNH1 110634Z 23008KT 12/10 A2989 RMK A01 T01220103  RH  088%=      5-min Rain = 0
KNH1 110635Z 23008KT 12/10 A2989 RMK A01 T01220103  RH  088%=      5-min Rain = 0
KNH1 110636Z 22009KT 12/10 A2989 RMK A01 T01230103  RH  088%=      5-min Rain = 0
KNH1 110637Z 22009KT 12/10 A2989 RMK A01 T01220102  RH  087%=      5-min Rain = 0
KNH1 110638Z 22008KT 12/10 A2989 RMK A01 T01220102  RH  088%=      5-min Rain = 0
KNH1 110639Z 23008KT 12/10 A2989 RMK A01 T01220102  RH  088%=      5-min Rain = 0
KNH1 110640Z 23007KT 12/10 A2989 RMK A01 T01220102  RH  088%=      5-min Rain = 0
KNH1 110641Z 23008KT 12/10 A2989 RMK A01 T01220102  RH  088%=      5-min Rain = 0
KNH1 110642Z 23008KT 12/10 A2989 RMK A01 T01220102  RH  087%=      5-min Rain = 0
KNH1 110643Z 23007KT 12/10 A2989 RMK A01 T01230102  RH  087%=      5-min Rain = 0
KNH1 110644Z 23008KT 12/10 A2989 RMK A01 T01240102  RH  087%=      5-min Rain = 0
KNH1 110645Z 24007KT 13/10 A2989 RMK A01 T01250102  RH  086%=      5-min Rain = 0
KNH1 110646Z 24007KT 13/10 A2989 RMK A01 T01250101  RH  086%=      5-min Rain = 0
KNH1 110647Z 25007KT 13/10 A2989 RMK A01 T01250101  RH  086%=      5-min Rain = 0
KNH1 110648Z 25007KT 13/10 A2989 RMK A01 T01250101  RH  086%=      5-min Rain = 0
KNH1 110649Z 25008KT 13/10 A2989 RMK A01 T01250101  RH  085%=      5-min Rain = 0
KNH1 110650Z 24007KT 13/10 A2989 RMK A01 T01250101  RH  085%=      5-min Rain = 0
KNH1 110651Z 24007KT 13/10 A2989 RMK A01 T01250101  RH  085%=      5-min Rain = 0
KNH1 110652Z 24006KT 13/10 A2989 RMK A01 T01250101  RH  085%=      5-min Rain = 0
KNH1 110653Z 24007KT 12/10 A2989 RMK A01 T01240101  RH  085%=      5-min Rain = 0
KNH1 110654Z 24007KT 12/10 A2989 RMK A01 T01240100  RH  085%=      5-min Rain = 0
KNH1 110655Z 24007KT 12/10 A2989 RMK A01 T01230100  RH  086%=      5-min Rain = 0
KNH1 110656Z 25007KT 12/10 A2989 RMK A01 T01220101  RH  086%=      5-min Rain = 0
KNH1 110657Z 25007KT 12/10 A2989 RMK A01 T01220101  RH  087%=      5-min Rain = 0
KNH1 110658Z 25007KT 12/10 A2989 RMK A01 T01220100  RH  087%=      5-min Rain = 0
KNH1 110659Z 25006KT 12/10 A2989 RMK A01 T01210100  RH  087%=      5-min Rain = 0
KNH1 110700Z 25007KT 12/10 A2989 RMK A01 T01200100  RH  087%=      5-min Rain = 0
KNH1 110701Z 25007KT 12/10 A2989 RMK A01 T01200100  RH  088%=      5-min Rain = 0
KNH1 110702Z 25007KT 12/10 A2989 RMK A01 T01190100  RH  088%=      5-min Rain = 0
KNH1 110703Z 25007KT 12/10 A2989 RMK A01 T01190100  RH  088%=      5-min Rain = 0
KNH1 110704Z 25007KT 12/10 A2989 RMK A01 T01190100  RH  088%=      5-min Rain = 0
KNH1 110705Z 25007KT 12/10 A2989 RMK A01 T01180099  RH  088%=      5-min Rain = 0
KNH1 110706Z 25007KT 12/10 A2989 RMK A01 T01170099  RH  088%=      5-min Rain = 0
KNH1 110707Z 25007KT 12/10 A2989 RMK A01 T01170099  RH  089%=      5-min Rain = 0
KNH1 110708Z 25007KT 12/10 A2989 RMK A01 T01160099  RH  089%=      5-min Rain = 0
KNH1 110709Z 25007KT 12/10 A2989 RMK A01 T01160099  RH  089%=      5-min Rain = 0
KNH1 110710Z 25008KT 12/10 A2989 RMK A01 T01160099  RH  089%=      5-min Rain = 0
KNH1 110711Z 25007KT 12/10 A2989 RMK A01 T01160099  RH  089%=      5-min Rain = 0
KNH1 110712Z 25007KT 12/10 A2989 RMK A01 T01160099  RH  089%=      5-min Rain = 0
KNH1 110713Z 25008KT 12/10 A2989 RMK A01 T01160099  RH  089%=      5-min Rain = 0
KNH1 110714Z 25008KT 12/10 A2989 RMK A01 T01170098  RH  089%=      5-min Rain = 0
KNH1 110715Z 25008KT 12/10 A2989 RMK A01 T01170099  RH  089%=      5-min Rain = 0
KNH1 110716Z 25008KT 12/10 A2989 RMK A01 T01190100  RH  088%=      5-min Rain = 0
KNH1 110717Z 25008KT 12/10 A2989 RMK A01 T01200100  RH  087%=      5-min Rain = 0
KNH1 110718Z 25008KT 12/10 A2989 RMK A01 T01200099  RH  087%=      5-min Rain = 0
KNH1 110719Z 25009KT 12/10 A2989 RMK A01 T01210099  RH  087%=      5-min Rain = 0
KNH1 110720Z 25008KT 12/10 A2989 RMK A01 T01210099  RH  087%=      5-min Rain = 0
KNH1 110721Z 25008KT 12/10 A2989 RMK A01 T01200098  RH  087%=      5-min Rain = 0
KNH1 110722Z 25008KT 12/10 A2989 RMK A01 T01200098  RH  087%=      5-min Rain = 0
KNH1 110723Z 25008KT 12/10 A2989 RMK A01 T01190098  RH  087%=      5-min Rain = 0
KNH1 110724Z 25009KT 12/10 A2989 RMK A01 T01180097  RH  087%=      5-min Rain = 0
KNH1 110725Z 25008KT 12/10 A2989 RMK A01 T01180098  RH  087%=      5-min Rain = 0
KNH1 110726Z 25008KT 12/10 A2989 RMK A01 T01180098  RH  087%=      5-min Rain = 0
KNH1 110727Z 26008KT 12/10 A2989 RMK A01 T01170097  RH  087%=      5-min Rain = 0
KNH1 110728Z 25008KT 12/10 A2989 RMK A01 T01170097  RH  088%=      5-min Rain = 0
KNH1 110729Z 25008KT 12/10 A2989 RMK A01 T01180098  RH  088%=      5-min Rain = 0
KNH1 110730Z 25008KT 12/10 A2989 RMK A01 T01170097  RH  088%=      5-min Rain = 0
KNH1 110731Z 25008KT 12/10 A2989 RMK A01 T01170097  RH  087%=      5-min Rain = 0
KNH1 110732Z 25008KT 12/10 A2989 RMK A01 T01170097  RH  087%=      5-min Rain = 0
KNH1 110733Z 25008KT 12/10 A2989 RMK A01 T01170097  RH  087%=      5-min Rain = 0
KNH1 110734Z 25007KT 12/10 A2989 RMK A01 T01170096  RH  087%=      5-min Rain = 0
KNH1 110735Z 26008KT 12/10 A2989 RMK A01 T01170096  RH  087%=      5-min Rain = 0
KNH1 110736Z 24009KT 12/10 A2989 RMK A01 T01170097  RH  087%=      5-min Rain = 0
KNH1 110737Z 24009KT 12/10 A2989 RMK A01 T01160097  RH  088%=      5-min Rain = 0
KNH1 110738Z 24009KT 12/10 A2989 RMK A01 T01160096  RH  087%=      5-min Rain = 0
KNH1 110739Z 25008KT 12/10 A2989 RMK A01 T01160096  RH  087%=      5-min Rain = 0
KNH1 110740Z 26007KT 12/10 A2989 RMK A01 T01160096  RH  088%=      5-min Rain = 0
KNH1 110741Z 25007KT 12/10 A2989 RMK A01 T01160096  RH  088%=      5-min Rain = 0
KNH1 110742Z 25008KT 12/10 A2989 RMK A01 T01160096  RH  088%=      5-min Rain = 0
KNH1 110743Z 25008KT 12/10 A2989 RMK A01 T01160096  RH  088%=      5-min Rain = 0
KNH1 110744Z 25008KT 12/10 A2989 RMK A01 T01160096  RH  088%=      5-min Rain = 0
KNH1 110745Z 26008KT 12/10 A2989 RMK A01 T01160096  RH  087%=      5-min Rain = 0
KNH1 110746Z 25008KT 12/10 A2989 RMK A01 T01170096  RH  087%=      5-min Rain = 0
KNH1 110747Z 26009KT 12/10 A2989 RMK A01 T01170096  RH  087%=      5-min Rain = 0
KNH1 110748Z 26008KT 12/10 A2989 RMK A01 T01180096  RH  087%=      5-min Rain = 0
KNH1 110749Z 26008KT 12/10 A2989 RMK A01 T01180096  RH  086%=      5-min Rain = 0
KNH1 110750Z 25008KT 12/10 A2989 RMK A01 T01180096  RH  086%=      5-min Rain = 0
KNH1 110751Z 25009KT 12/10 A2989 RMK A01 T01190096  RH  086%=      5-min Rain = 0
KNH1 110752Z 25008KT 12/10 A2989 RMK A01 T01190095  RH  085%=      5-min Rain = 0
KNH1 110753Z 25009KT 12/10 A2989 RMK A01 T01200095  RH  085%=      5-min Rain = 0
KNH1 110754Z 25008KT 12/10 A2989 RMK A01 T01200095  RH  085%=      5-min Rain = 0
KNH1 110755Z 25008KT 12/10 A2989 RMK A01 T01200095  RH  085%=      5-min Rain = 0
KNH1 110756Z 25007KT 12/10 A2989 RMK A01 T01200095  RH  085%=      5-min Rain = 0
KNH1 110757Z 25008KT 12/10 A2989 RMK A01 T01210096  RH  085%=      5-min Rain = 0
KNH1 110758Z 25008KT 12/10 A2989 RMK A01 T01200095  RH  085%=      5-min Rain = 0
KNH1 110759Z 25007KT 12/10 A2989 RMK A01 T01200095  RH  085%=      5-min Rain = 0
KNH1 110800Z 24008KT 12/10 A2989 RMK A01 T01190095  RH  085%=      5-min Rain = 0
KNH1 110801Z 23009KT 12/09 A2989 RMK A01 T01190094  RH  085%=      5-min Rain = 0
KNH1 110802Z 25008KT 12/09 A2989 RMK A01 T01180094  RH  085%=      5-min Rain = 0
KNH1 110803Z 26007KT 12/09 A2989 RMK A01 T01170093  RH  085%=      5-min Rain = 0
KNH1 110804Z 27007KT 12/09 A2989 RMK A01 T01170094  RH  086%=      5-min Rain = 0
KNH1 110805Z 27007KT 12/09 A2989 RMK A01 T01170093  RH  086%=      5-min Rain = 0
KNH1 110806Z 26007KT 12/09 A2989 RMK A01 T01180094  RH  085%=      5-min Rain = 0
KNH1 110807Z 25008KT 12/09 A2989 RMK A01 T01190094  RH  085%=      5-min Rain = 0
KNH1 110808Z 25007KT 12/10 A2989 RMK A01 T01190095  RH  085%=      5-min Rain = 0
KNH1 110809Z 24007KT 12/10 A2989 RMK A01 T01190095  RH  085%=      5-min Rain = 0
KNH1 110810Z 23008KT 12/09 A2989 RMK A01 T01200094  RH  084%=      5-min Rain = 0
KNH1 110811Z 22008KT 12/09 A299 RMK A01 T01190094  RH  085%=      5-min Rain = 0
KNH1 110812Z 22008KT 12/09 A299 RMK A01 T01180094  RH  085%=      5-min Rain = 0
KNH1 110813Z 23008KT 12/09 A299 RMK A01 T01180094  RH  086%=      5-min Rain = 0
KNH1 110814Z 23007KT 12/10 A299 RMK A01 T01180095  RH  086%=      5-min Rain = 0
KNH1 110815Z 24006KT 12/09 A299 RMK A01 T01170094  RH  086%=      5-min Rain = 0
KNH1 110816Z 24006KT 12/09 A2989 RMK A01 T01170094  RH  086%=      5-min Rain = 0
KNH1 110817Z 24007KT 12/10 A2989 RMK A01 T01170095  RH  086%=      5-min Rain = 0
KNH1 110818Z 25006KT 12/09 A2989 RMK A01 T01160094  RH  087%=      5-min Rain = 0
KNH1 110819Z 26006KT 12/09 A2989 RMK A01 T01160094  RH  087%=      5-min Rain = 0
KNH1 110820Z 26006KT 12/09 A299 RMK A01 T01160094  RH  087%=      5-min Rain = 0
KNH1 110821Z 26006KT 12/09 A2989 RMK A01 T01160094  RH  086%=      5-min Rain = 0
KNH1 110822Z 27006KT 12/09 A299 RMK A01 T01160094  RH  087%=      5-min Rain = 0
KNH1 110823Z 27006KT 12/09 A299 RMK A01 T01150094  RH  087%=      5-min Rain = 0
KNH1 110824Z 27006KT 12/09 A299 RMK A01 T01150094  RH  087%=      5-min Rain = 0
KNH1 110825Z 26005KT 12/09 A299 RMK A01 T01150093  RH  087%=      5-min Rain = 0
KNH1 110826Z 26005KT 12/09 A299 RMK A01 T01150094  RH  087%=      5-min Rain = 0
KNH1 110827Z 25005KT 11/09 A299 RMK A01 T01140094  RH  087%=      5-min Rain = 0
KNH1 110828Z 26005KT 11/09 A299 RMK A01 T01140094  RH  088%=      5-min Rain = 0
KNH1 110829Z 26004KT 11/09 A299 RMK A01 T01140094  RH  088%=      5-min Rain = 0
KNH1 110830Z 28003KT 11/09 A299 RMK A01 T01140094  RH  088%=      5-min Rain = 0
KNH1 110831Z 30003KT 11/09 A299 RMK A01 T01130093  RH  088%=      5-min Rain = 0
KNH1 110832Z 33005KT 11/09 A299 RMK A01 T01120094  RH  088%=      5-min Rain = 0
KNH1 110833Z 34008KT 11/10 A2991 RMK A01 T01130095  RH  089%=      5-min Rain = 0
KNH1 110834Z 35010KT 11/10 A2991 RMK A01 T01130095  RH  088%=      5-min Rain = 0
KNH1 110835Z 36010KT 11/10 A2991 RMK A01 T01130095  RH  088%=      5-min Rain = 0
KNH1 110836Z 35008G13KT 11/10 A2991 RMK A01 T01130095  RH  089%=      5-min Rain = 0
KNH1 110837Z 31005KT 11/10 A2991 RMK A01 T01130095  RH  088%=      5-min Rain = 0
KNH1 110838Z 33006KT 12/10 A2991 RMK A01 T01160095  RH  087%=      5-min Rain = 0
KNH1 110839Z 32005KT 12/09 A2991 RMK A01 T01170094  RH  086%=      5-min Rain = 0
KNH1 110840Z 32004KT 12/09 A2991 RMK A01 T01180094  RH  085%=      5-min Rain = 0
KNH1 110841Z 32006KT 12/09 A2991 RMK A01 T01190094  RH  085%=      5-min Rain = 0
KNH1 110842Z 34008KT 12/09 A2991 RMK A01 T01200094  RH  084%=      5-min Rain = 0
KNH1 110843Z 34007KT 12/09 A2991 RMK A01 T01200094  RH  084%=      5-min Rain = 0
KNH1 110844Z 31003KT 12/09 A2991 RMK A01 T01200094  RH  084%=      5-min Rain = 0
KNH1 110845Z 33005KT 12/10 A2991 RMK A01 T01200095  RH  084%=      5-min Rain = 0
KNH1 110846Z 32004KT 12/09 A2991 RMK A01 T01200094  RH  084%=      5-min Rain = 0
KNH1 110847Z 30005KT 12/09 A2991 RMK A01 T01200094  RH  084%=      5-min Rain = 0
KNH1 110848Z 30005KT 12/09 A2991 RMK A01 T01200094  RH  084%=      5-min Rain = 0
KNH1 110849Z 32004KT 12/09 A2991 RMK A01 T01200094  RH  084%=      5-min Rain = 0
KNH1 110850Z 31004KT 12/09 A2991 RMK A01 T01200094  RH  084%=      5-min Rain = 0
KNH1 110851Z 31004KT 12/09 A2991 RMK A01 T01210094  RH  083%=      5-min Rain = 0
KNH1 110852Z 32004KT 12/09 A2991 RMK A01 T01210093  RH  083%=      5-min Rain = 0
KNH1 110853Z 34005KT 12/09 A2991 RMK A01 T01210093  RH  083%=      5-min Rain = 0
KNH1 110854Z 34005KT 12/09 A2991 RMK A01 T01200093  RH  083%=      5-min Rain = 0
KNH1 110855Z 32004KT 12/09 A2991 RMK A01 T01190094  RH  084%=      5-min Rain = 0
KNH1 110856Z 32003KT 12/09 A2991 RMK A01 T01180093  RH  085%=      5-min Rain = 0
KNH1 110857Z 33005KT 12/09 A2991 RMK A01 T01180093  RH  084%=      5-min Rain = 0
KNH1 110858Z 32005KT 12/09 A2991 RMK A01 T01190093  RH  084%=      5-min Rain = 0
KNH1 110859Z 33005KT 12/09 A2991 RMK A01 T01190092  RH  083%=      5-min Rain = 0
KNH1 110900Z 32005KT 12/09 A2991 RMK A01 T01210092  RH  083%=      5-min Rain = 0
KNH1 110901Z 29005KT 12/09 A2991 RMK A01 T01220093  RH  083%=      5-min Rain = 0
KNH1 110902Z 29007KT 12/09 A2991 RMK A01 T01210092  RH  082%=      5-min Rain = 0
KNH1 110903Z 29007KT 12/09 A2991 RMK A01 T01210092  RH  083%=      5-min Rain = 0
KNH1 110904Z 28008KT 12/09 A2991 RMK A01 T01210092  RH  082%=      5-min Rain = 0
KNH1 110905Z 29007KT 12/09 A2991 RMK A01 T01220092  RH  082%=      5-min Rain = 0
KNH1 110906Z 29008KT 12/09 A2991 RMK A01 T01220093  RH  082%=      5-min Rain = 0
KNH1 110907Z 28008KT 12/09 A2991 RMK A01 T01220093  RH  082%=      5-min Rain = 0
KNH1 110908Z 28008KT 12/09 A2991 RMK A01 T01220093  RH  082%=      5-min Rain = 0
KNH1 110909Z 29006KT 12/09 A2991 RMK A01 T01220093  RH  082%=      5-min Rain = 0
KNH1 110910Z 33005KT 12/09 A2992 RMK A01 T01230094  RH  082%=      5-min Rain = 0
KNH1 110911Z 35007KT 12/09 A2992 RMK A01 T01230094  RH  082%=      5-min Rain = 0
KNH1 110912Z 32005KT 12/09 A2991 RMK A01 T01230093  RH  082%=      5-min Rain = 0
KNH1 110913Z 30005KT 12/09 A2991 RMK A01 T01220093  RH  082%=      5-min Rain = 0
KNH1 110914Z 30005KT 12/09 A2991 RMK A01 T01230093  RH  082%=      5-min Rain = 0
KNH1 110915Z 31004KT 12/09 A2991 RMK A01 T01230093  RH  082%=      5-min Rain = 0
KNH1 110916Z 31005KT 12/09 A2991 RMK A01 T01230093  RH  082%=      5-min Rain = 0
KNH1 110917Z 32004KT 12/09 A2991 RMK A01 T01240093  RH  081%=      5-min Rain = 0
KNH1 110918Z 33005KT 13/09 A2992 RMK A01 T01250093  RH  081%=      5-min Rain = 0
KNH1 110919Z 32004KT 13/09 A2992 RMK A01 T01250093  RH  081%=      5-min Rain = 0
KNH1 110920Z 30004KT 12/09 A2992 RMK A01 T01240093  RH  081%=      5-min Rain = 0
KNH1 110921Z 30005KT 12/09 A2992 RMK A01 T01230092  RH  081%=      5-min Rain = 0
KNH1 110922Z 34005KT 12/09 A2992 RMK A01 T01220092  RH  082%=      5-min Rain = 0
KNH1 110923Z 34006KT 12/09 A2992 RMK A01 T01210092  RH  082%=      5-min Rain = 0
KNH1 110924Z 33005KT 12/09 A2992 RMK A01 T01200092  RH  083%=      5-min Rain = 0
KNH1 110925Z 34006KT 12/09 A2992 RMK A01 T01200092  RH  083%=      5-min Rain = 0
KNH1 110926Z 34007KT 12/09 A2992 RMK A01 T01200093  RH  084%=      5-min Rain = 0
KNH1 110927Z 33006KT 12/09 A2992 RMK A01 T01180093  RH  084%=      5-min Rain = 0
KNH1 110928Z 31004KT 12/09 A2992 RMK A01 T01180093  RH  085%=      5-min Rain = 0
KNH1 110929Z 31005KT 12/09 A2992 RMK A01 T01180093  RH  084%=      5-min Rain = 0
KNH1 110930Z 33006KT 12/09 A2992 RMK A01 T01180093  RH  084%=      5-min Rain = 0
KNH1 110931Z 33006KT 12/09 A2992 RMK A01 T01190093  RH  084%=      5-min Rain = 0
KNH1 110932Z 31004KT 12/09 A2992 RMK A01 T01190093  RH  084%=      5-min Rain = 0
KNH1 110933Z 33005KT 12/09 A2992 RMK A01 T01190093  RH  084%=      5-min Rain = 0
KNH1 110934Z 34006KT 12/09 A2992 RMK A01 T01190093  RH  084%=      5-min Rain = 0
KNH1 110935Z 34007KT 12/09 A2992 RMK A01 T01180093  RH  084%=      5-min Rain = 0
KNH1 110936Z 34008KT 12/09 A2993 RMK A01 T01170092  RH  085%=      5-min Rain = 0
KNH1 110937Z 34008KT 12/09 A2993 RMK A01 T01170092  RH  085%=      5-min Rain = 0
KNH1 110938Z 34007KT 12/09 A2993 RMK A01 T01170092  RH  085%=      5-min Rain = 0
KNH1 110939Z 35007KT 12/09 A2993 RMK A01 T01160092  RH  085%=      5-min Rain = 0
KNH1 110940Z 34007KT 12/09 A2993 RMK A01 T01150091  RH  085%=      5-min Rain = 0
KNH1 110941Z 34007KT 12/09 A2993 RMK A01 T01150091  RH  085%=      5-min Rain = 0
KNH1 110942Z 34008KT 12/09 A2993 RMK A01 T01150090  RH  085%=      5-min Rain = 0
KNH1 110943Z 34009KT 12/09 A2993 RMK A01 T01150089  RH  084%=      5-min Rain = 0
KNH1 110944Z 34007KT 12/09 A2993 RMK A01 T01160090  RH  084%=      5-min Rain = 0
KNH1 110945Z 34008KT 12/09 A2993 RMK A01 T01170089  RH  083%=      5-min Rain = 0
KNH1 110946Z 34008KT 12/09 A2993 RMK A01 T01170089  RH  083%=      5-min Rain = 0
KNH1 110947Z 34007KT 12/09 A2993 RMK A01 T01170089  RH  083%=      5-min Rain = 0
KNH1 110948Z 35007KT 12/09 A2993 RMK A01 T01170089  RH  083%=      5-min Rain = 0
KNH1 110949Z 35008KT 12/09 A2993 RMK A01 T01170089  RH  083%=      5-min Rain = 0
KNH1 110950Z 35007KT 12/09 A2993 RMK A01 T01160089  RH  083%=      5-min Rain = 0
KNH1 110951Z 35007KT 12/09 A2993 RMK A01 T01160089  RH  083%=      5-min Rain = 0
KNH1 110952Z 35007KT 12/09 A2993 RMK A01 T01160089  RH  083%=      5-min Rain = 0
KNH1 110953Z 35008KT 12/09 A2993 RMK A01 T01160088  RH  083%=      5-min Rain = 0
KNH1 110954Z 34007KT 12/09 A2993 RMK A01 T01160088  RH  083%=      5-min Rain = 0
KNH1 110955Z 34007KT 12/09 A2993 RMK A01 T01160088  RH  083%=      5-min Rain = 0
KNH1 110956Z 34008KT 12/09 A2993 RMK A01 T01160087  RH  082%=      5-min Rain = 0
KNH1 110957Z 34007KT 12/09 A2993 RMK A01 T01160086  RH  081%=      5-min Rain = 0
KNH1 110958Z 34007KT 12/09 A2993 RMK A01 T01170085  RH  081%=      5-min Rain = 0
KNH1 110959Z 33008KT 12/09 A2994 RMK A01 T01180085  RH  080%=      5-min Rain = 0
KNH1 111000Z 34008KT 12/09 A2994 RMK A01 T01190085  RH  080%=      5-min Rain = 0
KNH1 111001Z 34007KT 12/09 A2994 RMK A01 T01190085  RH  080%=      5-min Rain = 0
KNH1 111002Z 34007KT 12/09 A2994 RMK A01 T01190085  RH  079%=      5-min Rain = 0
KNH1 111003Z 34008KT 12/08 A2994 RMK A01 T01190084  RH  079%=      5-min Rain = 0
KNH1 111004Z 34009KT 12/08 A2994 RMK A01 T01190084  RH  079%=      5-min Rain = 0
KNH1 111005Z 33007KT 12/08 A2994 RMK A01 T01200084  RH  079%=      5-min Rain = 0
KNH1 111006Z 33008KT 12/08 A2994 RMK A01 T01200082  RH  078%=      5-min Rain = 0
KNH1 111007Z 34008KT 12/08 A2994 RMK A01 T01210082  RH  077%=      5-min Rain = 0
KNH1 111008Z 33008KT 12/08 A2994 RMK A01 T01220082  RH  077%=      5-min Rain = 0
KNH1 111009Z 33008KT 12/08 A2994 RMK A01 T01220081  RH  076%=      5-min Rain = 0
KNH1 111010Z 33010KT 12/08 A2994 RMK A01 T01220081  RH  076%=      5-min Rain = 0
KNH1 111011Z 33010KT 12/08 A2994 RMK A01 T01220080  RH  075%=      5-min Rain = 0
KNH1 111012Z 33010KT 12/08 A2994 RMK A01 T01230078  RH  074%=      5-min Rain = 0
KNH1 111013Z 33012KT 12/08 A2994 RMK A01 T01230077  RH  073%=      5-min Rain = 0
KNH1 111014Z 33011G16KT 12/08 A2994 RMK A01 T01240076  RH  072%=      5-min Rain = 0
KNH1 111015Z 34011KT 13/08 A2994 RMK A01 T01250076  RH  072%=      5-min Rain = 0
KNH1 111016Z 33012KT 13/08 A2995 RMK A01 T01250075  RH  072%=      5-min Rain = 0
KNH1 111017Z 33013G18KT 12/08 A2995 RMK A01 T01240075  RH  072%=      5-min Rain = 0
KNH1 111018Z 34015KT 12/07 A2995 RMK A01 T01240071  RH  070%=      5-min Rain = 0
KNH1 111019Z 34012KT 12/07 A2995 RMK A01 T01240070  RH  070%=      5-min Rain = 0
KNH1 111020Z 34013KT 12/07 A2995 RMK A01 T01230069  RH  070%=      5-min Rain = 0
KNH1 111021Z 34016G21KT 12/07 A2995 RMK A01 T01220069  RH  070%=      5-min Rain = 0
KNH1 111022Z 34015KT 12/07 A2995 RMK A01 T01220067  RH  069%=      5-min Rain = 0
KNH1 111023Z 35013G19KT 12/07 A2996 RMK A01 T01210067  RH  069%=      5-min Rain = 0
KNH1 111024Z 34014G20KT 12/07 A2996 RMK A01 T01200067  RH  070%=      5-min Rain = 0
KNH1 111025Z 35015KT 12/07 A2996 RMK A01 T01190065  RH  069%=      5-min Rain = 0
KNH1 111026Z 35016KT 12/06 A2996 RMK A01 T01180064  RH  069%=      5-min Rain = 0
KNH1 111027Z 35015KT 12/06 A2996 RMK A01 T01170062  RH  069%=      5-min Rain = 0
KNH1 111028Z 34016KT 12/06 A2996 RMK A01 T01170060  RH  068%=      5-min Rain = 0
KNH1 111029Z 35014G19KT 12/06 A2996 RMK A01 T01160059  RH  068%=      5-min Rain = 0
KNH1 111030Z 36015KT 12/06 A2996 RMK A01 T01150058  RH  068%=      5-min Rain = 0
KNH1 111031Z 36015G20KT 11/06 A2996 RMK A01 T01140057  RH  068%=      5-min Rain = 0
KNH1 111032Z 00014KT 11/06 A2996 RMK A01 T01140055  RH  067%=      5-min Rain = 0
KNH1 111033Z 36017KT 11/05 A2997 RMK A01 T01130053  RH  067%=      5-min Rain = 0
KNH1 111034Z 36014G20KT 11/05 A2997 RMK A01 T01120050  RH  065%=      5-min Rain = 0
KNH1 111035Z 01018G24KT 11/05 A2997 RMK A01 T01110046  RH  064%=      5-min Rain = 0
KNH1 111036Z 01017G22KT 11/04 A2997 RMK A01 T01100040  RH  062%=      5-min Rain = 0
KNH1 111037Z 00017G23KT 11/04 A2997 RMK A01 T01080037  RH  061%=      5-min Rain = 0
KNH1 111038Z 00018G23KT 11/03 A2997 RMK A01 T01050033  RH  061%=      5-min Rain = 0
KNH1 111039Z 01017G23KT 10/03 A2998 RMK A01 T01030031  RH  061%=      5-min Rain = 0
KNH1 111040Z 01018G24KT 10/03 A2998 RMK A01 T01010029  RH  061%=      5-min Rain = 0
KNH1 111041Z 01017G22KT 10/03 A2998 RMK A01 T01000029  RH  061%=      5-min Rain = 0
KNH1 111042Z 01018G24KT 10/03 A2998 RMK A01 T00980030  RH  063%=      5-min Rain = 0
KNH1 111043Z 01020KT 10/03 A2998 RMK A01 T00980029  RH  062%=      5-min Rain = 0
KNH1 111044Z 01018G23KT 10/03 A2998 RMK A01 T00970029  RH  063%=      5-min Rain = 0
KNH1 111045Z 01017G22KT 10/03 A2998 RMK A01 T00960030  RH  063%=      5-min Rain = 0
KNH1 111046Z 01018G23KT 10/03 A2998 RMK A01 T00950029  RH  063%=      5-min Rain = 0
KNH1 111047Z 01017KT 09/03 A2999 RMK A01 T00940030  RH  064%=      5-min Rain = 0
KNH1 111048Z 01016KT 09/03 A2999 RMK A01 T00930030  RH  065%=      5-min Rain = 0
KNH1 111049Z 01013KT 09/03 A2999 RMK A01 T00920031  RH  065%=      5-min Rain = 0
KNH1 111050Z 01019G25KT 09/03 A2999 RMK A01 T00920031  RH  066%=      5-min Rain = 0
KNH1 111051Z 01018KT 09/03 A2999 RMK A01 T00910030  RH  066%=      5-min Rain = 0
KNH1 111052Z 00017G22KT 09/03 A2999 RMK A01 T00910030  RH  066%=      5-min Rain = 0
KNH1 111053Z 01019G24KT 09/03 A2999 RMK A01 T00900029  RH  065%=      5-min Rain = 0
KNH1 111054Z 01018KT 09/03 A2999 RMK A01 T00900029  RH  066%=      5-min Rain = 0
KNH1 111055Z 01015G20KT 09/03 A2999 RMK A01 T00890030  RH  066%=      5-min Rain = 0
KNH1 111056Z 00017KT 09/03 A2999 RMK A01 T00890031  RH  067%=      5-min Rain = 0
KNH1 111057Z 01018KT 09/03 A30 RMK A01 T00880031  RH  067%=      5-min Rain = 0
KNH1 111058Z 01015G22KT 09/03 A30 RMK A01 T00870031  RH  067%=      5-min Rain = 0
KNH1 111059Z 01018KT 09/03 A30 RMK A01 T00870030  RH  068%=      5-min Rain = 0
KNH1 111100Z 01016G22KT 09/03 A30 RMK A01 T00860031  RH  068%=      5-min Rain = 0
KNH1 111101Z 00016G21KT 09/03 A30 RMK A01 T00860032  RH  069%=      5-min Rain = 0
KNH1 111102Z 00018G23KT 09/03 A30 RMK A01 T00850033  RH  070%=      5-min Rain = 0
KNH1 111103Z 01017KT 08/03 A30 RMK A01 T00840032  RH  070%=      5-min Rain = 0
KNH1 111104Z 36017G22KT 08/03 A30 RMK A01 T00830032  RH  070%=      5-min Rain = 0
KNH1 111105Z 00016KT 08/03 A3001 RMK A01 T00820033  RH  071%=      5-min Rain = 0
KNH1 111106Z 01019G24KT 08/03 A3001 RMK A01 T00810032  RH  071%=      5-min Rain = 0
KNH1 111107Z 00016KT 08/03 A3001 RMK A01 T00810032  RH  071%=      5-min Rain = 0
KNH1 111108Z 00014KT 08/03 A3001 RMK A01 T00810032  RH  071%=      5-min Rain = 0
KNH1 111109Z 01015KT 08/03 A3002 RMK A01 T00800033  RH  072%=      5-min Rain = 0
KNH1 111110Z 00015KT 08/03 A3002 RMK A01 T00800033  RH  072%=      5-min Rain = 0
KNH1 111111Z 00016G21KT 08/03 A3002 RMK A01 T00790033  RH  073%=      5-min Rain = 0
KNH1 111112Z 01016G23KT 08/03 A3002 RMK A01 T00790033  RH  072%=      5-min Rain = 0
KNH1 111113Z 01017G23KT 08/03 A3002 RMK A01 T00790031  RH  072%=      5-min Rain = 0
KNH1 111114Z 01019G24KT 08/03 A3002 RMK A01 T00790031  RH  071%=      5-min Rain = 0
KNH1 111115Z 36013KT 08/03 A3002 RMK A01 T00790031  RH  072%=      5-min Rain = 0
KNH1 111116Z 00016KT 08/03 A3003 RMK A01 T00790032  RH  073%=      5-min Rain = 0
KNH1 111117Z 00017KT 08/03 A3003 RMK A01 T00780032  RH  073%=      5-min Rain = 0
KNH1 111118Z 01015G21KT 08/03 A3003 RMK A01 T00780032  RH  073%=      5-min Rain = 0
KNH1 111119Z 00017KT 08/03 A3003 RMK A01 T00780031  RH  073%=      5-min Rain = 0
KNH1 111120Z 01014KT 08/03 A3003 RMK A01 T00770032  RH  073%=      5-min Rain = 0
KNH1 111121Z 01016G21KT 08/03 A3003 RMK A01 T00770032  RH  073%=      5-min Rain = 0
KNH1 111122Z 36014G20KT 08/03 A3003 RMK A01 T00770031  RH  073%=      5-min Rain = 0
KNH1 111123Z 00020G25KT 08/03 A3003 RMK A01 T00760033  RH  074%=      5-min Rain = 0
KNH1 111124Z 01019G24KT 08/03 A3003 RMK A01 T00760031  RH  073%=      5-min Rain = 0
KNH1 111125Z 01016KT 08/03 A3003 RMK A01 T00750031  RH  073%=      5-min Rain = 0
KNH1 111126Z 01017KT 08/03 A3004 RMK A01 T00750032  RH  074%=      5-min Rain = 0
KNH1 111127Z 01017G22KT 08/03 A3004 RMK A01 T00750032  RH  074%=      5-min Rain = 0
KNH1 111128Z 01014G19KT 08/03 A3004 RMK A01 T00750032  RH  074%=      5-min Rain = 0
KNH1 111129Z 00015KT 07/03 A3004 RMK A01 T00740032  RH  075%=      5-min Rain = 0
KNH1 111130Z 01016KT 07/03 A3004 RMK A01 T00740033  RH  075%=      5-min Rain = 0
KNH1 111131Z 01017G22KT 07/03 A3004 RMK A01 T00740033  RH  076%=      5-min Rain = 0
KNH1 111132Z 01020G25KT 07/03 A3004 RMK A01 T00740034  RH  076%=      5-min Rain = 0
KNH1 111133Z 01019KT 07/04 A3004 RMK A01 T00730036  RH  077%=      5-min Rain = 0
KNH1 111134Z 01016G21KT 07/04 A3004 RMK A01 T00730037  RH  078%=      5-min Rain = 0
KNH1 111135Z 01015KT 07/04 A3004 RMK A01 T00730038  RH  078%=      5-min Rain = 0
KNH1 111136Z 02013KT 07/04 A3005 RMK A01 T00730038  RH  079%=      5-min Rain = 0
KNH1 111137Z 02017KT 07/04 A3004 RMK A01 T00730038  RH  079%=      5-min Rain = 0
KNH1 111138Z 01017KT 07/04 A3005 RMK A01 T00720037  RH  078%=      5-min Rain = 0
KNH1 111139Z 01017G24KT 07/04 A3005 RMK A01 T00720037  RH  079%=      5-min Rain = 0
KNH1 111140Z 01018G24KT 07/04 A3005 RMK A01 T00720039  RH  079%=      5-min Rain = 0
KNH1 111141Z 01018G27KT 07/04 A3005 RMK A01 T00710038  RH  079%=      5-min Rain = 0
KNH1 111142Z 01019G25KT 07/04 A3005 RMK A01 T00710039  RH  080%=      5-min Rain = 0
KNH1 111143Z 01020G28KT 07/04 A3005 RMK A01 T00710039  RH  080%=      5-min Rain = 0
KNH1 111144Z 00021G26KT 07/04 A3005 RMK A01 T00710039  RH  080%=      5-min Rain = 0
KNH1 111145Z 01017KT 07/04 A3005 RMK A01 T00710039  RH  081%=      5-min Rain = 0
KNH1 111146Z 01016G21KT 07/04 A3006 RMK A01 T00710040  RH  081%=      5-min Rain = 0
KNH1 111147Z 01016KT 07/04 A3006 RMK A01 T00700040  RH  081%=      5-min Rain = 0
KNH1 111148Z 00016G22KT 07/04 A3006 RMK A01 T00700040  RH  081%=      5-min Rain = 0
KNH1 111149Z 01018G23KT 07/04 A3006 RMK A01 T00710041  RH  082%=      5-min Rain = 0
KNH1 111150Z 02017G22KT 07/04 A3006 RMK A01 T00700041  RH  081%=      5-min Rain = 0
KNH1 111151Z 01018G23KT 07/04 A3006 RMK A01 T00700041  RH  081%=      5-min Rain = 0
KNH1 111152Z 01018G24KT 07/04 A3006 RMK A01 T00700041  RH  082%=      5-min Rain = 0
KNH1 111153Z 01018G23KT 07/04 A3006 RMK A01 T00700041  RH  082%=      5-min Rain = 0
KNH1 111154Z 01015KT 07/04 A3007 RMK A01 T00700042  RH  082%=      5-min Rain = 0
KNH1 111155Z 01016KT 07/04 A3007 RMK A01 T00700042  RH  082%=      5-min Rain = 0
KNH1 111156Z 01016G21KT 07/04 A3007 RMK A01 T00700042  RH  082%=      5-min Rain = 0
KNH1 111157Z 02019G25KT 07/04 A3007 RMK A01 T00700042  RH  082%=      5-min Rain = 0
KNH1 111158Z 01018G23KT 07/04 A3007 RMK A01 T00700041  RH  082%=      5-min Rain = 0
KNH1 111159Z 02014KT 07/04 A3007 RMK A01 T00700041  RH  082%=      5-min Rain = 0
KNH1 111200Z 02015KT 07/04 A3007 RMK A01 T00700041  RH  082%=      5-min Rain = 0
KNH1 111201Z 02017KT 07/04 A3007 RMK A01 T00700041  RH  082%=      5-min Rain = 0
KNH1 111202Z 01016G23KT 07/04 A3007 RMK A01 T00700040  RH  081%=      5-min Rain = 0
KNH1 111203Z 01016G23KT 07/04 A3007 RMK A01 T00710040  RH  081%=      5-min Rain = 0
KNH1 111204Z 02019G24KT 07/04 A3007 RMK A01 T00700041  RH  081%=      5-min Rain = 0
KNH1 111205Z 03021G28KT 07/04 A3007 RMK A01 T00700041  RH  082%=      5-min Rain = 0
KNH1 111206Z 03019KT 07/04 A3007 RMK A01 T00700039  RH  081%=      5-min Rain = 0
KNH1 111207Z 02018G23KT 07/04 A3007 RMK A01 T00690039  RH  081%=      5-min Rain = 0
KNH1 111208Z 02013KT 07/04 A3008 RMK A01 T00690039  RH  081%=      5-min Rain = 0
KNH1 111209Z 02017KT 07/04 A3008 RMK A01 T00690039  RH  081%=      5-min Rain = 0
KNH1 111210Z 02015KT 07/04 A3008 RMK A01 T00690039  RH  081%=      5-min Rain = 0
KNH1 111211Z 00017KT 07/04 A3008 RMK A01 T00690039  RH  081%=      5-min Rain = 0
KNH1 111212Z 01012G19KT 07/04 A3008 RMK A01 T00690039  RH  082%=      5-min Rain = 0
KNH1 111213Z 01017KT 07/04 A3008 RMK A01 T00690040  RH  082%=      5-min Rain = 0
KNH1 111214Z 02018G23KT 07/04 A3008 RMK A01 T00690039  RH  081%=      5-min Rain = 0
KNH1 111215Z 02015G25KT 07/04 A3008 RMK A01 T00690038  RH  081%=      5-min Rain = 0
KNH1 111216Z 02018G25KT 07/04 A3008 RMK A01 T00690038  RH  080%=      5-min Rain = 0
KNH1 111217Z 01014KT 07/04 A3008 RMK A01 T00690037  RH  080%=      5-min Rain = 0
KNH1 111218Z 02015KT 07/04 A3009 RMK A01 T00690037  RH  080%=      5-min Rain = 0
KNH1 111219Z 02018KT 07/04 A3008 RMK A01 T00690037  RH  080%=      5-min Rain = 0
KNH1 111220Z 01015G20KT 07/04 A3009 RMK A01 T00690036  RH  080%=      5-min Rain = 0
KNH1 111221Z 01014G19KT 07/04 A3009 RMK A01 T00690036  RH  080%=      5-min Rain = 0
KNH1 111222Z 02014G22KT 07/04 A3009 RMK A01 T00690036  RH  080%=      5-min Rain = 0
KNH1 111223Z 02018G27KT 07/03 A3009 RMK A01 T00680034  RH  079%=      5-min Rain = 0
KNH1 111224Z 02017G22KT 07/03 A3009 RMK A01 T00670033  RH  079%=      5-min Rain = 0
KNH1 111225Z 02020KT 07/03 A3009 RMK A01 T00670033  RH  079%=      5-min Rain = 0
KNH1 111226Z 01021G27KT 07/03 A301 RMK A01 T00660031  RH  079%=      5-min Rain = 0
KNH1 111227Z 01020G26KT 07/03 A301 RMK A01 T00650030  RH  078%=      5-min Rain = 0
KNH1 111228Z 01019G25KT 06/03 A301 RMK A01 T00640029  RH  078%=      5-min Rain = 0
KNH1 111229Z 01018KT 06/03 A301 RMK A01 T00630029  RH  078%=      5-min Rain = 0
KNH1 111230Z 01018G27KT 06/03 A301 RMK A01 T00630028  RH  078%=      5-min Rain = 0
KNH1 111231Z 02017G22KT 06/03 A301 RMK A01 T00620028  RH  079%=      5-min Rain = 0
KNH1 111232Z 02016G23KT 06/03 A301 RMK A01 T00630029  RH  079%=      5-min Rain = 0
KNH1 111233Z 02010G15KT 06/03 A3011 RMK A01 T00620030  RH  080%=      5-min Rain = 0
KNH1 111234Z 02013G18KT 06/03 A3011 RMK A01 T00620031  RH  080%=      5-min Rain = 0
KNH1 111235Z 02016G21KT 06/03 A3011 RMK A01 T00620030  RH  080%=      5-min Rain = 0
KNH1 111236Z 02015KT 06/03 A3011 RMK A01 T00610027  RH  079%=      5-min Rain = 0
KNH1 111237Z 02016G21KT 06/03 A3011 RMK A01 T00600027  RH  079%=      5-min Rain = 0
KNH1 111238Z 02016G22KT 06/03 A3011 RMK A01 T00600027  RH  079%=      5-min Rain = 0
KNH1 111239Z 01014G20KT 06/03 A3011 RMK A01 T00600026  RH  079%=      5-min Rain = 0
KNH1 111240Z 01014G26KT 06/03 A3011 RMK A01 T00590026  RH  079%=      5-min Rain = 0
KNH1 111241Z 01020G26KT 06/03 A3011 RMK A01 T00580025  RH  079%=      5-min Rain = 0
KNH1 111242Z 01019G27KT 06/02 A3011 RMK A01 T00560022  RH  078%=      5-min Rain = 0
KNH1 111243Z 01021G28KT 05/02 A3011 RMK A01 T00540020  RH  078%=      5-min Rain = 0
KNH1 111244Z 01014G20KT 05/02 A3012 RMK A01 T00530020  RH  079%=      5-min Rain = 0
KNH1 111245Z 01014KT 05/02 A3012 RMK A01 T00530021  RH  080%=      5-min Rain = 0
KNH1 111246Z 01019G24KT 05/02 A3012 RMK A01 T00530021  RH  080%=      5-min Rain = 0
KNH1 111247Z 01021G26KT 05/02 A3012 RMK A01 T00520019  RH  079%=      5-min Rain = 0
KNH1 111248Z 01016G24KT 05/02 A3012 RMK A01 T00510018  RH  079%=      5-min Rain = 0
KNH1 111249Z 01019G25KT 05/02 A3013 RMK A01 T00500018  RH  079%=      5-min Rain = 0
KNH1 111250Z 01019G28KT 05/02 A3013 RMK A01 T00490016  RH  079%=      5-min Rain = 0
KNH1 111251Z 01022KT 05/01 A3013 RMK A01 T00470014  RH  079%=      5-min Rain = 0
KNH1 111252Z 01021KT 05/01 A3013 RMK A01 T00460012  RH  079%=      5-min Rain = 0
KNH1 111253Z 01020G26KT 05/01 A3013 RMK A01 T00450012  RH  079%=      5-min Rain = 0
KNH1 111254Z 01021KT 04/01 A3013 RMK A01 T00440012  RH  080%=      5-min Rain = 0
KNH1 111255Z 01020G27KT 04/01 A3013 RMK A01 T00430012  RH  080%=      5-min Rain = 0
KNH1 111256Z 02021G28KT 04/01 A3013 RMK A01 T00430012  RH  080%=      5-min Rain = 0
KNH1 111257Z 02015G23KT 04/01 A3013 RMK A01 T00430013  RH  081%=      5-min Rain = 0
KNH1 111258Z 02017G25KT 04/01 A3013 RMK A01 T00430013  RH  081%=      5-min Rain = 0
KNH1 111259Z 02016G21KT 04/01 A3013 RMK A01 T00420013  RH  081%=      5-min Rain = 0
KNH1 111300Z 01015G24KT 04/01 A3013 RMK A01 T00420014  RH  082%=      5-min Rain = 0
KNH1 111301Z 01019G25KT 04/01 A3013 RMK A01 T00410013  RH  082%=      5-min Rain = 0
KNH1 111302Z 01017G25KT 04/01 A3013 RMK A01 T00390010  RH  081%=      5-min Rain = 0
KNH1 111303Z 01018G25KT 04/01 A3013 RMK A01 T00380009  RH  082%=      5-min Rain = 0
KNH1 111304Z 36021G27KT 04/01 A3013 RMK A01 T00360008  RH  082%=      5-min Rain = 0
KNH1 111305Z 00020G25KT 04/01 A3014 RMK A01 T00350008  RH  082%=      5-min Rain = 0
KNH1 111306Z 02019G26KT 03/01 A3014 RMK A01 T00340007  RH  083%=      5-min Rain = 0
KNH1 111307Z 01018G23KT 03/01 A3014 RMK A01 T00330007  RH  083%=      5-min Rain = 0
KNH1 111308Z 01020KT 03/01 A3014 RMK A01 T00340008  RH  083%=      5-min Rain = 0
KNH1 111309Z 01017G22KT 03/01 A3014 RMK A01 T00340007  RH  083%=      5-min Rain = 0
KNH1 111310Z 01015G20KT 03/01 A3014 RMK A01 T00330007  RH  083%=      5-min Rain = 0
KNH1 111311Z 01020G26KT 03/01 A3015 RMK A01 T00330007  RH  083%=      5-min Rain = 0
KNH1 111312Z 01020G25KT 03/01 A3015 RMK A01 T00320006  RH  083%=      5-min Rain = 0
KNH1 111313Z 01021G26KT 03/00 A3015 RMK A01 T00310003  RH  082%=      5-min Rain = 0
KNH1 111314Z 01019G25KT 03/00 A3015 RMK A01 T00290002  RH  082%=      5-min Rain = 0
KNH1 111315Z 01023G30KT 03/00 A3015 RMK A01 T00280002  RH  083%=      5-min Rain = 0
KNH1 111316Z 01021G28KT 03/00 A3015 RMK A01 T00270000  RH  083%=      5-min Rain = 0
KNH1 111317Z 00020G25KT 03/00 A3015 RMK A01 T002600-0  RH  083%=      5-min Rain = 0
KNH1 111318Z 00020G25KT 03/00 A3015 RMK A01 T002500-0  RH  083%=      5-min Rain = 0
KNH1 111319Z 01022G28KT 03/00 A3015 RMK A01 T002500-0  RH  083%=      5-min Rain = 0
KNH1 111320Z 01020G25KT 02/M00 A3015 RMK A01 T00241001  RH  083%=      5-min Rain = 0
KNH1 111321Z 01019G26KT 02/M00 A3016 RMK A01 T00241001  RH  084%=      5-min Rain = 0
KNH1 111322Z 02017G22KT 02/M00 A3015 RMK A01 T00241001  RH  083%=      5-min Rain = 0
KNH1 111323Z 02019G27KT 02/00 A3015 RMK A01 T002400-0  RH  084%=      5-min Rain = 0
KNH1 111324Z 01020G26KT 03/00 A3016 RMK A01 T002500-0  RH  084%=      5-min Rain = 0
KNH1 111325Z 02016KT 02/M00 A3016 RMK A01 T00241001  RH  084%=      5-min Rain = 0
KNH1 111326Z 02014KT 02/00 A3016 RMK A01 T002400-0  RH  084%=      5-min Rain = 0
KNH1 111327Z 01018G23KT 02/00 A3016 RMK A01 T002400-0  RH  084%=      5-min Rain = 0
KNH1 111328Z 02017G24KT 02/M00 A3016 RMK A01 T00241001  RH  084%=      5-min Rain = 0
KNH1 111329Z 01018G24KT 02/M00 A3016 RMK A01 T00241002  RH  083%=      5-min Rain = 0
KNH1 111330Z 01022G27KT 02/M00 A3016 RMK A01 T00241003  RH  083%=      5-min Rain = 0
KNH1 111331Z 01020G27KT 02/M00 A3016 RMK A01 T00231004  RH  083%=      5-min Rain = 0
KNH1 111332Z 01022G28KT 02/M00 A3016 RMK A01 T00221004  RH  083%=      5-min Rain = 0
KNH1 111333Z 01020G26KT 02/M00 A3016 RMK A01 T00221004  RH  083%=      5-min Rain = 0
KNH1 111334Z 01018KT 02/M00 A3016 RMK A01 T00221004  RH  083%=      5-min Rain = 0
KNH1 111335Z 01019G25KT 02/M00 A3016 RMK A01 T00221004  RH  083%=      5-min Rain = 0
KNH1 111336Z 00022G29KT 02/M01 A3016 RMK A01 T00211005  RH  083%=      5-min Rain = 0
KNH1 111337Z 01019G27KT 02/M01 A3017 RMK A01 T00201006  RH  083%=      5-min Rain = 0
KNH1 111338Z 01021G26KT 02/M01 A3017 RMK A01 T00191007  RH  083%=      5-min Rain = 0
KNH1 111339Z 00017KT 02/M01 A3017 RMK A01 T00181008  RH  083%=      5-min Rain = 0
KNH1 111340Z 01021G29KT 02/M01 A3017 RMK A01 T00171008  RH  084%=      5-min Rain = 0
KNH1 111341Z 00024G33KT 02/M01 A3017 RMK A01 T00161010  RH  083%=      5-min Rain = 0
KNH1 111342Z 01023G30KT 01/M01 A3017 RMK A01 T00141011  RH  083%=      5-min Rain = 0
KNH1 111343Z 01025G30KT 01/M01 A3017 RMK A01 T00141011  RH  084%=      5-min Rain = 0
KNH1 111344Z 01023G29KT 01/M01 A3017 RMK A01 T00121012  RH  084%=      5-min Rain = 0
KNH1 111345Z 01022G29KT 01/M01 A3018 RMK A01 T00111013  RH  084%=      5-min Rain = 0
KNH1 111346Z 01025KT 01/M01 A3018 RMK A01 T00111013  RH  084%=      5-min Rain = 0
KNH1 111347Z 01023G30KT 01/M01 A3018 RMK A01 T00101014  RH  084%=      5-min Rain = 0
KNH1 111348Z 01024G31KT 01/M01 A3018 RMK A01 T00111014  RH  084%=      5-min Rain = 0
KNH1 111349Z 01024KT 01/M01 A3018 RMK A01 T00101014  RH  084%=      5-min Rain = 0
KNH1 111350Z 01019G26KT 01/M01 A3019 RMK A01 T00111014  RH  084%=      5-min Rain = 0
KNH1 111351Z 01018G25KT 01/M01 A3019 RMK A01 T00101014  RH  084%=      5-min Rain = 0
KNH1 111352Z 01016G22KT 01/M01 A3019 RMK A01 T00111014  RH  084%=      5-min Rain = 0
KNH1 111353Z 01014KT 01/M01 A3019 RMK A01 T00111013  RH  084%=      5-min Rain = 0
KNH1 111354Z 01015G20KT 01/M01 A3019 RMK A01 T00111013  RH  084%=      5-min Rain = 0
KNH1 111355Z 01023G28KT 01/M01 A3019 RMK A01 T00121013  RH  083%=      5-min Rain = 0
KNH1 111356Z 01018G27KT 01/M01 A302 RMK A01 T00111014  RH  083%=      5-min Rain = 0
KNH1 111357Z 01018KT 01/M02 A302 RMK A01 T00111015  RH  083%=      5-min Rain = 0
KNH1 111358Z 01018G24KT 01/M01 A302 RMK A01 T00111014  RH  083%=      5-min Rain = 0
KNH1 111359Z 01019G25KT 01/M01 A302 RMK A01 T00111014  RH  083%=      5-min Rain = 0
KNH1 111400Z 02018KT 01/M02 A302 RMK A01 T00111015  RH  083%=      5-min Rain = 0
KNH1 111401Z 01015G25KT 01/M02 A3021 RMK A01 T00111015  RH  083%=      5-min Rain = 0
KNH1 111402Z 02018KT 01/M02 A3021 RMK A01 T00111015  RH  082%=      5-min Rain = 0
KNH1 111403Z 02018G26KT 01/M02 A3021 RMK A01 T00111016  RH  082%=      5-min Rain = 0
KNH1 111404Z 02019G26KT 01/M02 A3021 RMK A01 T00111016  RH  082%=      5-min Rain = 0
KNH1 111405Z 02016G21KT 01/M02 A3021 RMK A01 T00111016  RH  082%=      5-min Rain = 0
KNH1 111406Z 01017KT 01/M02 A3022 RMK A01 T00121015  RH  082%=      5-min Rain = 0
KNH1 111407Z 01016G21KT 01/M02 A3022 RMK A01 T00111015  RH  082%=      5-min Rain = 0
KNH1 111408Z 01017KT 01/M02 A3022 RMK A01 T00111015  RH  083%=      5-min Rain = 0
KNH1 111409Z 02017G23KT 01/M02 A3021 RMK A01 T00111015  RH  083%=      5-min Rain = 0
KNH1 111410Z 01019G27KT 01/M02 A3022 RMK A01 T00101016  RH  082%=      5-min Rain = 0
KNH1 111411Z 01020G26KT 01/M02 A3021 RMK A01 T00101017  RH  082%=      5-min Rain = 0
KNH1 111412Z 01023G30KT 01/M02 A3022 RMK A01 T00091018  RH  082%=      5-min Rain = 0
KNH1 111413Z 01021G28KT 01/M02 A3022 RMK A01 T00091019  RH  082%=      5-min Rain = 0
KNH1 111414Z 01019G24KT 01/M02 A3022 RMK A01 T00091019  RH  082%=      5-min Rain = 0
KNH1 111415Z 01019G26KT 01/M02 A3022 RMK A01 T00081018  RH  082%=      5-min Rain = 0
KNH1 111416Z 02019G27KT 01/M02 A3022 RMK A01 T00091017  RH  083%=      5-min Rain = 0
KNH1 111417Z 01019G25KT 01/M02 A3022 RMK A01 T00091017  RH  083%=      5-min Rain = 0
KNH1 111418Z 02017G29KT 01/M02 A3022 RMK A01 T00091017  RH  083%=      5-min Rain = 0
KNH1 111419Z 02016G21KT 01/M02 A3023 RMK A01 T00091017  RH  083%=      5-min Rain = 0
KNH1 111420Z 03017G22KT 01/M02 A3022 RMK A01 T00091017  RH  083%=      5-min Rain = 0
KNH1 111421Z 02020G26KT 01/M02 A3022 RMK A01 T00091018  RH  082%=      5-min Rain = 0
KNH1 111422Z 02017G22KT 01/M02 A3023 RMK A01 T00081019  RH  082%=      5-min Rain = 0
KNH1 111423Z 02016G22KT 01/M02 A3022 RMK A01 T00081018  RH  083%=      5-min Rain = 0
KNH1 111424Z 02019G25KT 01/M02 A3022 RMK A01 T00081018  RH  083%=      5-min Rain = 0
KNH1 111425Z 03021G30KT 01/M02 A3022 RMK A01 T00071019  RH  082%=      5-min Rain = 0
KNH1 111426Z 02017G22KT 01/M02 A3023 RMK A01 T00071020  RH  082%=      5-min Rain = 0
KNH1 111427Z 02016G21KT 01/M02 A3023 RMK A01 T00071019  RH  082%=      5-min Rain = 0
KNH1 111428Z 02021G27KT 01/M02 A3023 RMK A01 T00071019  RH  083%=      5-min Rain = 0
KNH1 111429Z 02018G23KT 01/M02 A3023 RMK A01 T00071020  RH  082%=      5-min Rain = 0
KNH1 111430Z 02016G27KT 01/M02 A3023 RMK A01 T00071019  RH  083%=      5-min Rain = 0
KNH1 111431Z 02021G30KT 01/M02 A3023 RMK A01 T00071020  RH  082%=      5-min Rain = 0
KNH1 111432Z 02020G28KT 01/M02 A3023 RMK A01 T00061021  RH  082%=      5-min Rain = 0
KNH1 111433Z 02021G26KT 01/M02 A3023 RMK A01 T00061021  RH  082%=      5-min Rain = 0
KNH1 111434Z 02017G23KT 01/M02 A3024 RMK A01 T00061021  RH  082%=      5-min Rain = 0
KNH1 111435Z 02022G31KT 01/M02 A3024 RMK A01 T00061021  RH  083%=      5-min Rain = 0
KNH1 111436Z 02022G31KT 01/M02 A3024 RMK A01 T00061021  RH  082%=      5-min Rain = 0
KNH1 111437Z 02015KT 01/M02 A3024 RMK A01 T00061021  RH  083%=      5-min Rain = 0
KNH1 111438Z 02018G23KT 01/M02 A3024 RMK A01 T00061020  RH  083%=      5-min Rain = 0
KNH1 111439Z 02019G27KT 01/M02 A3024 RMK A01 T00061020  RH  083%=      5-min Rain = 0
KNH1 111440Z 02024G33KT 01/M02 A3024 RMK A01 T00061021  RH  082%=      5-min Rain = 0
KNH1 111441Z 02017G25KT 01/M02 A3025 RMK A01 T00061021  RH  082%=      5-min Rain = 0
KNH1 111442Z 02021G27KT 01/M02 A3025 RMK A01 T00061020  RH  082%=      5-min Rain = 0
KNH1 111443Z 02018G27KT 01/M02 A3025 RMK A01 T00061020  RH  083%=      5-min Rain = 0
KNH1 111444Z 02017G24KT 01/M02 A3025 RMK A01 T00071020  RH  083%=      5-min Rain = 0
KNH1 111445Z 02022G30KT 01/M02 A3025 RMK A01 T00061021  RH  082%=      5-min Rain = 0
KNH1 111446Z 02019G27KT 01/M02 A3025 RMK A01 T00061021  RH  082%=      5-min Rain = 0
KNH1 111447Z 02022G32KT 01/M02 A3025 RMK A01 T00051021  RH  083%=      5-min Rain = 0
KNH1 111448Z 03023G29KT 01/M02 A3025 RMK A01 T00051021  RH  082%=      5-min Rain = 0
KNH1 111449Z 02023G31KT 00/M02 A3025 RMK A01 T00041022  RH  083%=      5-min Rain = 0
KNH1 111450Z 02025G35KT 00/M02 A3026 RMK A01 T00041023  RH  083%=      5-min Rain = 0
KNH1 111451Z 02021G27KT 00/M02 A3026 RMK A01 T00031023  RH  083%=      5-min Rain = 0
KNH1 111452Z 02025G32KT 00/M02 A3026 RMK A01 T00031022  RH  083%=      5-min Rain = 0
KNH1 111453Z 02025G32KT 00/M02 A3026 RMK A01 T00031023  RH  083%=      5-min Rain = 0
KNH1 111454Z 02024G30KT 00/M02 A3026 RMK A01 T00031023  RH  083%=      5-min Rain = 0
KNH1 111455Z 02017G23KT 00/M02 A3027 RMK A01 T00021024  RH  083%=      5-min Rain = 0
KNH1 111456Z 03021G28KT 00/M02 A3027 RMK A01 T00021023  RH  083%=      5-min Rain = 0
KNH1 111457Z 02022G30KT 00/M02 A3027 RMK A01 T00021024  RH  083%=      5-min Rain = 0
KNH1 111458Z 02018G25KT 00/M02 A3027 RMK A01 T00021024  RH  083%=      5-min Rain = 0
KNH1 111459Z 03019G24KT 00/M02 A3027 RMK A01 T00021024  RH  083%=      5-min Rain = 0
KNH1 111500Z 03019G25KT 00/M02 A3028 RMK A01 T00031023  RH  083%=      5-min Rain = 0
KNH1 111501Z 02019KT 00/M02 A3028 RMK A01 T00021024  RH  083%=      5-min Rain = 0
KNH1 111502Z 02018G24KT 00/M02 A3028 RMK A01 T00021023  RH  083%=      5-min Rain = 0
KNH1 111503Z 02015KT 00/M02 A3028 RMK A01 T00031023  RH  083%=      5-min Rain = 0
KNH1 111504Z 02018G25KT 00/M02 A3028 RMK A01 T00031022  RH  083%=      5-min Rain = 0
KNH1 111505Z 03019G28KT 00/M02 A3028 RMK A01 T00041022  RH  083%=      5-min Rain = 0
KNH1 111506Z 03019G24KT 00/M02 A3028 RMK A01 T00031023  RH  083%=      5-min Rain = 0
KNH1 111507Z 03020G26KT 00/M02 A3028 RMK A01 T00031024  RH  083%=      5-min Rain = 0
KNH1 111508Z 03021KT 00/M02 A3028 RMK A01 T00021024  RH  083%=      5-min Rain = 0
KNH1 111509Z 02021G29KT 00/M03 A3028 RMK A01 T00011025  RH  083%=      5-min Rain = 0
KNH1 111510Z 01020KT 00/M03 A3029 RMK A01 T00011025  RH  083%=      5-min Rain = 0
KNH1 111511Z 01018G26KT 00/03 A3029 RMK A01 T00000-25  RH  083%=      5-min Rain = 0
KNH1 111512Z 01019G24KT 00/03 A3029 RMK A01 T00-00-26  RH  083%=      5-min Rain = 0
KNH1 111513Z 01019G24KT M00/M03 A3029 RMK A01 T10011025  RH  083%=      5-min Rain = 0
KNH1 111514Z 01024KT M00/M03 A3029 RMK A01 T10011026  RH  084%=      5-min Rain = 0
KNH1 111515Z 01021KT M00/M03 A3029 RMK A01 T10031027  RH  083%=      5-min Rain = 0
KNH1 111516Z 01019G25KT M00/M03 A3029 RMK A01 T10031027  RH  084%=      5-min Rain = 0
KNH1 111517Z 02018G24KT M00/M03 A3029 RMK A01 T10031027  RH  084%=      5-min Rain = 0
KNH1 111518Z 02017KT M00/M03 A3029 RMK A01 T10031026  RH  085%=      5-min Rain = 0
KNH1 111519Z 01014G19KT M00/M03 A303 RMK A01 T10031025  RH  085%=      5-min Rain = 0
KNH1 111520Z 01015KT M00/M02 A303 RMK A01 T10031024  RH  085%=      5-min Rain = 0
KNH1 111521Z 01018G24KT M00/M03 A303 RMK A01 T10031025  RH  085%=      5-min Rain = 0
KNH1 111522Z 01018G26KT M00/M03 A303 RMK A01 T10031026  RH  084%=      5-min Rain = 0
KNH1 111523Z 02020G28KT M00/M03 A303 RMK A01 T10041027  RH  084%=      5-min Rain = 0
KNH1 111524Z 03021G27KT M00/M03 A303 RMK A01 T10041027  RH  085%=      5-min Rain = 0
KNH1 111525Z 03025G31KT M01/M03 A303 RMK A01 T10051027  RH  085%=      5-min Rain = 0
KNH1 111526Z 02020G26KT M01/M03 A303 RMK A01 T10061029  RH  085%=      5-min Rain = 0
KNH1 111527Z 02022G30KT M01/M03 A303 RMK A01 T10071029  RH  085%=      5-min Rain = 0
KNH1 111528Z 03022G29KT M01/M03 A303 RMK A01 T10071029  RH  085%=      5-min Rain = 0
KNH1 111529Z 01016G22KT M01/M03 A3031 RMK A01 T10071029  RH  085%=      5-min Rain = 0
KNH1 111530Z 02018G26KT M01/M03 A3031 RMK A01 T10061028  RH  085%=      5-min Rain = 0
KNH1 111531Z 01016G22KT M01/M03 A3031 RMK A01 T10061028  RH  085%=      5-min Rain = 0
KNH1 111532Z 01020G28KT M01/M03 A3031 RMK A01 T10051028  RH  084%=      5-min Rain = 0
KNH1 111533Z 02018G26KT M01/M03 A3032 RMK A01 T10061030  RH  084%=      5-min Rain = 0
KNH1 111534Z 01019G27KT M01/M03 A3032 RMK A01 T10071031  RH  084%=      5-min Rain = 0
KNH1 111535Z 01020G25KT M01/M03 A3032 RMK A01 T10071032  RH  084%=      5-min Rain = 0
KNH1 111536Z 02016KT M01/M03 A3032 RMK A01 T10081032  RH  084%=      5-min Rain = 0
KNH1 111537Z 01020KT M01/M03 A3032 RMK A01 T10071030  RH  084%=      5-min Rain = 0
KNH1 111538Z 01023G28KT M01/M03 A3032 RMK A01 T10071030  RH  084%=      5-min Rain = 0
KNH1 111539Z 02019G24KT M01/M03 A3032 RMK A01 T10071031  RH  084%=      5-min Rain = 0
KNH1 111540Z 03018KT M01/M03 A3032 RMK A01 T10071031  RH  084%=      5-min Rain = 0
KNH1 111541Z 02016G23KT M01/M03 A3033 RMK A01 T10071032  RH  084%=      5-min Rain = 0
KNH1 111542Z 02021KT M01/M03 A3032 RMK A01 T10071032  RH  084%=      5-min Rain = 0
KNH1 111543Z 02017G24KT M01/M03 A3033 RMK A01 T10071032  RH  083%=      5-min Rain = 0
KNH1 111544Z 02018G24KT M01/M03 A3033 RMK A01 T10081031  RH  084%=      5-min Rain = 0
KNH1 111545Z 02019G25KT M01/M03 A3032 RMK A01 T10081032  RH  084%=      5-min Rain = 0
KNH1 111546Z 02018G23KT M01/M03 A3033 RMK A01 T10081032  RH  083%=      5-min Rain = 0
KNH1 111547Z 02021G28KT M01/M03 A3032 RMK A01 T10081032  RH  083%=      5-min Rain = 0
KNH1 111548Z 02016KT M01/M03 A3033 RMK A01 T10081033  RH  083%=      5-min Rain = 0
KNH1 111549Z 02020G27KT M01/M03 A3032 RMK A01 T10081032  RH  083%=      5-min Rain = 0
KNH1 111550Z 02019KT M01/M03 A3032 RMK A01 T10081033  RH  083%=      5-min Rain = 0
KNH1 111551Z 02018G24KT M01/M03 A3033 RMK A01 T10081033  RH  083%=      5-min Rain = 0
KNH1 111552Z 02017G22KT M01/M03 A3032 RMK A01 T10091033  RH  084%=      5-min Rain = 0
KNH1 111553Z 02019G25KT M01/M03 A3033 RMK A01 T10091033  RH  084%=      5-min Rain = 0
KNH1 111554Z 01017KT M01/M03 A3033 RMK A01 T10091033  RH  083%=      5-min Rain = 0
KNH1 111555Z 02016KT M01/M03 A3033 RMK A01 T10091033  RH  084%=      5-min Rain = 0
KNH1 111556Z 02020G26KT M01/M03 A3033 RMK A01 T10091033  RH  083%=      5-min Rain = 0
KNH1 111557Z 02016G22KT M01/M04 A3033 RMK A01 T10101036  RH  083%=      5-min Rain = 0
KNH1 111558Z 01019G25KT M01/M04 A3033 RMK A01 T10111036  RH  083%=      5-min Rain = 0
KNH1 111559Z 01022G28KT M01/M04 A3033 RMK A01 T10121037  RH  083%=      5-min Rain = 0
KNH1 111600Z 01018G23KT M01/M04 A3033 RMK A01 T10121037  RH  083%=      5-min Rain = 0
KNH1 111601Z 01020G25KT M01/M04 A3033 RMK A01 T10131037  RH  084%=      5-min Rain = 0
KNH1 111602Z 01015KT M01/M04 A3033 RMK A01 T10131037  RH  083%=      5-min Rain = 0
KNH1 111603Z 01015G20KT M01/M04 A3034 RMK A01 T10131037  RH  084%=      5-min Rain = 0
KNH1 111604Z 01019G24KT M01/M04 A3033 RMK A01 T10131037  RH  084%=      5-min Rain = 0
KNH1 111605Z 01018KT M01/M04 A3034 RMK A01 T10131038  RH  083%=      5-min Rain = 0
KNH1 111606Z 01017G24KT M01/M04 A3034 RMK A01 T10131037  RH  083%=      5-min Rain = 0
KNH1 111607Z 01017KT M01/M04 A3034 RMK A01 T10121037  RH  083%=      5-min Rain = 0
KNH1 111608Z 01016G22KT M01/M04 A3034 RMK A01 T10121038  RH  083%=      5-min Rain = 0
KNH1 111609Z 01016KT M01/M04 A3034 RMK A01 T10121037  RH  083%=      5-min Rain = 0
KNH1 111610Z 01017G23KT M01/M04 A3034 RMK A01 T10131037  RH  083%=      5-min Rain = 0
KNH1 111611Z 02017G24KT M01/M04 A3034 RMK A01 T10121036  RH  084%=      5-min Rain = 0
KNH1 111612Z 03020G26KT M01/M04 A3034 RMK A01 T10111036  RH  083%=      5-min Rain = 0
KNH1 111613Z 02018G23KT M01/M04 A3034 RMK A01 T10111037  RH  083%=      5-min Rain = 0
KNH1 111614Z 01019G25KT M01/M04 A3034 RMK A01 T10121037  RH  083%=      5-min Rain = 0
KNH1 111615Z 01017G22KT M01/M04 A3034 RMK A01 T10121038  RH  083%=      5-min Rain = 0
KNH1 111616Z 01016G24KT M01/M04 A3035 RMK A01 T10121037  RH  083%=      5-min Rain = 0
KNH1 111617Z 02014G22KT M01/M04 A3035 RMK A01 T10121037  RH  083%=      5-min Rain = 0
KNH1 111618Z 02013G21KT M01/M04 A3035 RMK A01 T10121037  RH  083%=      5-min Rain = 0
KNH1 111619Z 02018G24KT M01/M04 A3035 RMK A01 T10121037  RH  083%=      5-min Rain = 0
KNH1 111620Z 01020G26KT M01/M04 A3035 RMK A01 T10121038  RH  082%=      5-min Rain = 0
KNH1 111621Z 02016G24KT M01/M04 A3035 RMK A01 T10131040  RH  082%=      5-min Rain = 0
KNH1 111622Z 03020G28KT M01/M04 A3035 RMK A01 T10141040  RH  082%=      5-min Rain = 0
KNH1 111623Z 02017KT M02/M04 A3035 RMK A01 T10151041  RH  082%=      5-min Rain = 0
KNH1 111624Z 02016G22KT M02/M04 A3036 RMK A01 T10151041  RH  083%=      5-min Rain = 0
KNH1 111625Z 01021G27KT M01/M04 A3035 RMK A01 T10141040  RH  083%=      5-min Rain = 0
KNH1 111626Z 01022G34KT M02/M04 A3035 RMK A01 T10151042  RH  082%=      5-min Rain = 0
KNH1 111627Z 03022G28KT M02/M04 A3036 RMK A01 T10161044  RH  081%=      5-min Rain = 0
KNH1 111628Z 02021KT M02/M05 A3036 RMK A01 T10171046  RH  081%=      5-min Rain = 0
KNH1 111629Z 01023G30KT M02/M05 A3036 RMK A01 T10171046  RH  080%=      5-min Rain = 0
KNH1 111630Z 02021G27KT M02/M05 A3036 RMK A01 T10171047  RH  080%=      5-min Rain = 0
KNH1 111631Z 02018G27KT M02/M05 A3036 RMK A01 T10181049  RH  079%=      5-min Rain = 0
KNH1 111632Z 02018G25KT M02/M05 A3037 RMK A01 T10181048  RH  080%=      5-min Rain = 0
KNH1 111633Z 02015G25KT M02/M05 A3037 RMK A01 T10181046  RH  081%=      5-min Rain = 0
KNH1 111634Z 02020G25KT M02/M05 A3037 RMK A01 T10181046  RH  081%=      5-min Rain = 0
KNH1 111635Z 01017G24KT M02/M05 A3037 RMK A01 T10201048  RH  081%=      5-min Rain = 0
KNH1 111636Z 02019G28KT M02/M05 A3037 RMK A01 T10211049  RH  081%=      5-min Rain = 0
KNH1 111637Z 01020G27KT M02/M05 A3037 RMK A01 T10211049  RH  081%=      5-min Rain = 0
KNH1 111638Z 02020G27KT M02/M05 A3037 RMK A01 T10221049  RH  081%=      5-min Rain = 0
KNH1 111639Z 02022G28KT M02/M05 A3037 RMK A01 T10221050  RH  081%=      5-min Rain = 0
KNH1 111640Z 02018G26KT M02/M05 A3037 RMK A01 T10221050  RH  081%=      5-min Rain = 0
KNH1 111641Z 02026G34KT M02/M05 A3037 RMK A01 T10211050  RH  081%=      5-min Rain = 0
KNH1 111642Z 02020G28KT M02/M05 A3037 RMK A01 T10221051  RH  080%=      5-min Rain = 0
KNH1 111643Z 02020G29KT M02/M05 A3037 RMK A01 T10221050  RH  081%=      5-min Rain = 0
KNH1 111644Z 02019G25KT M02/M05 A3037 RMK A01 T10221050  RH  081%=      5-min Rain = 0
KNH1 111645Z 02022G31KT M02/M05 A3037 RMK A01 T10221050  RH  081%=      5-min Rain = 0
KNH1 111646Z 02021G30KT M02/M05 A3037 RMK A01 T10221050  RH  081%=      5-min Rain = 0
KNH1 111647Z 03022G27KT M02/M05 A3038 RMK A01 T10221050  RH  081%=      5-min Rain = 0
KNH1 111648Z 03020G25KT M02/M05 A3038 RMK A01 T10221050  RH  081%=      5-min Rain = 0
KNH1 111649Z 03020KT M02/M05 A3038 RMK A01 T10221051  RH  081%=      5-min Rain = 0
KNH1 111650Z 02016G22KT M02/M05 A3038 RMK A01 T10221051  RH  081%=      5-min Rain = 0
KNH1 111651Z 02015KT M02/M05 A3038 RMK A01 T10221050  RH  081%=      5-min Rain = 0
KNH1 111652Z 02014G19KT M02/M05 A3039 RMK A01 T10221050  RH  081%=      5-min Rain = 0
KNH1 111653Z 01015G20KT M02/M05 A3039 RMK A01 T10211050  RH  081%=      5-min Rain = 0
KNH1 111654Z 02015G23KT M02/M05 A3039 RMK A01 T10211049  RH  081%=      5-min Rain = 0
KNH1 111655Z 01018G24KT M02/M05 A3039 RMK A01 T10211049  RH  081%=      5-min Rain = 0
KNH1 111656Z 02018G24KT M02/M05 A3039 RMK A01 T10201050  RH  080%=      5-min Rain = 0
KNH1 111657Z 01015KT M02/M05 A3039 RMK A01 T10201050  RH  080%=      5-min Rain = 0
KNH1 111658Z 01017KT M02/M05 A3039 RMK A01 T10201049  RH  080%=      5-min Rain = 0
KNH1 111659Z 02017KT M02/M05 A3039 RMK A01 T10201050  RH  080%=      5-min Rain = 0
KNH1 111700Z 02015KT M02/M05 A3039 RMK A01 T10191048  RH  081%=      5-min Rain = 0
KNH1 111701Z 02011G17KT M02/M05 A3039 RMK A01 T10181046  RH  081%=      5-min Rain = 0
KNH1 111702Z 02020G27KT M02/M05 A3039 RMK A01 T10161045  RH  081%=      5-min Rain = 0
KNH1 111703Z 02018G24KT M02/M05 A3039 RMK A01 T10171048  RH  080%=      5-min Rain = 0
KNH1 111704Z 03022G28KT M02/M05 A3039 RMK A01 T10181048  RH  080%=      5-min Rain = 0
KNH1 111705Z 02018G24KT M02/M05 A3039 RMK A01 T10191049  RH  080%=      5-min Rain = 0
KNH1 111706Z 02020G26KT M02/M05 A3039 RMK A01 T10191048  RH  080%=      5-min Rain = 0
KNH1 111707Z 02017G23KT M02/M05 A3039 RMK A01 T10191048  RH  081%=      5-min Rain = 0
KNH1 111708Z 02020G25KT M02/M05 A3039 RMK A01 T10201047  RH  081%=      5-min Rain = 0
KNH1 111709Z 02022G27KT M02/M05 A3039 RMK A01 T10201049  RH  081%=      5-min Rain = 0
KNH1 111710Z 03020KT M02/M05 A3039 RMK A01 T10211050  RH  081%=      5-min Rain = 0
KNH1 111711Z 03023G31KT M02/M05 A3038 RMK A01 T10211049  RH  081%=      5-min Rain = 0
KNH1 111712Z 03025G30KT M02/M05 A3038 RMK A01 T10221050  RH  081%=      5-min Rain = 0
KNH1 111713Z 03024G29KT M02/M05 A3039 RMK A01 T10221050  RH  081%=      5-min Rain = 0
KNH1 111714Z 03019G26KT M02/M05 A3039 RMK A01 T10231050  RH  082%=      5-min Rain = 0
KNH1 111715Z 03018G25KT M02/M05 A3039 RMK A01 T10231048  RH  083%=      5-min Rain = 0
KNH1 111716Z 03016G23KT M02/M05 A3039 RMK A01 T10231048  RH  083%=      5-min Rain = 0
KNH1 111717Z 03019G25KT M02/M05 A3039 RMK A01 T10231047  RH  083%=      5-min Rain = 0
KNH1 111718Z 02019G26KT M02/M05 A3039 RMK A01 T10221047  RH  083%=      5-min Rain = 0
KNH1 111719Z 03021G28KT M02/M05 A3039 RMK A01 T10231048  RH  083%=      5-min Rain = 0
KNH1 111720Z 03019KT M02/M05 A3039 RMK A01 T10231048  RH  083%=      5-min Rain = 0
KNH1 111721Z 02018KT M02/M05 A304 RMK A01 T10241049  RH  083%=      5-min Rain = 0
KNH1 111722Z 03019G26KT M02/M05 A3039 RMK A01 T10241048  RH  084%=      5-min Rain = 0
KNH1 111723Z 02019G27KT M02/M05 A304 RMK A01 T10241049  RH  083%=      5-min Rain = 0
KNH1 111724Z 03020G25KT M02/M05 A304 RMK A01 T10241049  RH  083%=      5-min Rain = 0
KNH1 111725Z 03019G24KT M02/M05 A3039 RMK A01 T10241049  RH  083%=      5-min Rain = 0
KNH1 111726Z 02021G26KT M03/M05 A304 RMK A01 T10251051  RH  083%=      5-min Rain = 0
KNH1 111727Z 02019G28KT M03/M05 A304 RMK A01 T10261051  RH  083%=      5-min Rain = 0
KNH1 111728Z 03017G26KT M03/M05 A3039 RMK A01 T10261050  RH  083%=      5-min Rain = 0
KNH1 111729Z 03022G27KT M03/M05 A304 RMK A01 T10251049  RH  084%=      5-min Rain = 0
KNH1 111730Z 03023G30KT M03/M05 A304 RMK A01 T10261050  RH  083%=      5-min Rain = 0
KNH1 111731Z 02021G26KT M03/M05 A304 RMK A01 T10261051  RH  083%=      5-min Rain = 0
KNH1 111732Z 02020G28KT M03/M05 A304 RMK A01 T10271051  RH  083%=      5-min Rain = 0
KNH1 111733Z 02022G27KT M03/M05 A304 RMK A01 T10261051  RH  083%=      5-min Rain = 0
KNH1 111734Z 03019G25KT M03/M05 A304 RMK A01 T10271052  RH  083%=      5-min Rain = 0
KNH1 111735Z 03021G26KT M03/M05 A304 RMK A01 T10271052  RH  083%=      5-min Rain = 0
KNH1 111736Z 03022G27KT M03/M05 A304 RMK A01 T10271051  RH  083%=      5-min Rain = 0
KNH1 111737Z 03020G26KT M03/M05 A304 RMK A01 T10271051  RH  083%=      5-min Rain = 0
KNH1 111738Z 03020G25KT M03/M05 A304 RMK A01 T10271050  RH  084%=      5-min Rain = 0
KNH1 111739Z 03019G26KT M03/M05 A304 RMK A01 T10271050  RH  084%=      5-min Rain = 0
KNH1 111740Z 03017KT M03/M05 A304 RMK A01 T10271049  RH  085%=      5-min Rain = 0
KNH1 111741Z 03020G26KT M03/M05 A304 RMK A01 T10261048  RH  085%=      5-min Rain = 0
KNH1 111742Z 03020G25KT M03/M05 A304 RMK A01 T10271049  RH  084%=      5-min Rain = 0
KNH1 111743Z 03020G26KT M03/M05 A304 RMK A01 T10271050  RH  084%=      5-min Rain = 0
KNH1 111744Z 02021KT M03/M05 A304 RMK A01 T10271050  RH  084%=      5-min Rain = 0
KNH1 111745Z 03019G24KT M03/M05 A304 RMK A01 T10271049  RH  084%=      5-min Rain = 0
KNH1 111746Z 02017G23KT M03/M05 A304 RMK A01 T10271048  RH  085%=      5-min Rain = 0
KNH1 111747Z 02017G26KT M03/M05 A304 RMK A01 T10271048  RH  085%=      5-min Rain = 0
KNH1 111748Z 03021KT M03/M05 A304 RMK A01 T10261048  RH  085%=      5-min Rain = 0
KNH1 111749Z 02019G24KT M03/M05 A3041 RMK A01 T10271049  RH  085%=      5-min Rain = 0
KNH1 111750Z 02021G27KT M03/M05 A304 RMK A01 T10271049  RH  085%=      5-min Rain = 0
KNH1 111751Z 03020KT M03/M05 A3041 RMK A01 T10271049  RH  084%=      5-min Rain = 0
KNH1 111752Z 02018KT M03/M05 A3041 RMK A01 T10271049  RH  084%=      5-min Rain = 0
KNH1 111753Z 02019KT M03/M05 A3041 RMK A01 T10271049  RH  085%=      5-min Rain = 0
KNH1 111754Z 02016KT M03/M05 A3041 RMK A01 T10271049  RH  085%=      5-min Rain = 0
KNH1 111755Z 02017G23KT M03/M05 A3041 RMK A01 T10271049  RH  085%=      5-min Rain = 0
KNH1 111756Z 02019G24KT M03/M05 A3041 RMK A01 T10271050  RH  084%=      5-min Rain = 0
KNH1 111757Z 02015G21KT M03/M05 A3041 RMK A01 T10271050  RH  084%=      5-min Rain = 0
KNH1 111758Z 02016KT M03/M05 A3041 RMK A01 T10271049  RH  085%=      5-min Rain = 0
KNH1 111759Z 01018G29KT M03/M05 A3041 RMK A01 T10271049  RH  085%=      5-min Rain = 0
KNH1 111800Z 02018G27KT M03/M05 A3041 RMK A01 T10271050  RH  085%=      5-min Rain = 0
KNH1 111801Z 02019G27KT M03/M05 A3041 RMK A01 T10281050  RH  085%=      5-min Rain = 0
KNH1 111802Z 02019KT M03/M05 A3041 RMK A01 T10281050  RH  084%=      5-min Rain = 0
KNH1 111803Z 03017G22KT M03/M05 A3041 RMK A01 T10281051  RH  084%=      5-min Rain = 0
KNH1 111804Z 03019G24KT M03/M05 A3041 RMK A01 T10281051  RH  084%=      5-min Rain = 0
KNH1 111805Z 02017G22KT M03/M05 A3041 RMK A01 T10271050  RH  085%=      5-min Rain = 0
KNH1 111806Z 01017KT M03/M05 A3041 RMK A01 T10271049  RH  085%=      5-min Rain = 0
KNH1 111807Z 02021G26KT M03/M05 A3041 RMK A01 T10271051  RH  084%=      5-min Rain = 0
KNH1 111808Z 02020G28KT M03/M05 A3041 RMK A01 T10271052  RH  083%=      5-min Rain = 0
KNH1 111809Z 02016G21KT M03/M05 A3041 RMK A01 T10281052  RH  084%=      5-min Rain = 0
KNH1 111810Z 02017G22KT M03/M05 A3041 RMK A01 T10271050  RH  084%=      5-min Rain = 0
KNH1 111811Z 02018KT M03/M05 A3041 RMK A01 T10271051  RH  083%=      5-min Rain = 0
KNH1 111812Z 02016G22KT M03/M05 A3041 RMK A01 T10271052  RH  083%=      5-min Rain = 0
KNH1 111813Z 02013KT M03/M05 A3042 RMK A01 T10271051  RH  083%=      5-min Rain = 0
KNH1 111814Z 02018G23KT M03/M05 A3042 RMK A01 T10261050  RH  083%=      5-min Rain = 0
KNH1 111815Z 02017G22KT M03/M05 A3041 RMK A01 T10261051  RH  083%=      5-min Rain = 0
KNH1 111816Z 02017KT M03/M05 A3042 RMK A01 T10261051  RH  083%=      5-min Rain = 0
KNH1 111817Z 02014KT M03/M05 A3041 RMK A01 T10261052  RH  083%=      5-min Rain = 0
KNH1 111818Z 03017G24KT M03/M05 A3041 RMK A01 T10261051  RH  083%=      5-min Rain = 0
KNH1 111819Z 02020G26KT M03/M05 A3041 RMK A01 T10261051  RH  083%=      5-min Rain = 0
KNH1 111820Z 03021G26KT M03/M05 A3041 RMK A01 T10261052  RH  082%=      5-min Rain = 0
KNH1 111821Z 03019G26KT M03/M05 A3041 RMK A01 T10261053  RH  082%=      5-min Rain = 0
KNH1 111822Z 03020G25KT M03/M05 A3041 RMK A01 T10261053  RH  082%=      5-min Rain = 0
KNH1 111823Z 02016G21KT M03/M05 A3041 RMK A01 T10261054  RH  082%=      5-min Rain = 0
KNH1 111824Z 02016G22KT M03/M05 A3041 RMK A01 T10261052  RH  082%=      5-min Rain = 0
KNH1 111825Z 02018G25KT M03/M05 A3041 RMK A01 T10251051  RH  082%=      5-min Rain = 0
KNH1 111826Z 02017G22KT M03/M05 A3041 RMK A01 T10251053  RH  082%=      5-min Rain = 0
KNH1 111827Z 02013KT M03/M05 A3041 RMK A01 T10261053  RH  082%=      5-min Rain = 0
KNH1 111828Z 03016G22KT M03/M05 A3041 RMK A01 T10261053  RH  082%=      5-min Rain = 0
KNH1 111829Z 02019G25KT M03/M05 A3041 RMK A01 T10271054  RH  081%=      5-min Rain = 0
KNH1 111830Z 02017KT M03/M06 A3041 RMK A01 T10281056  RH  081%=      5-min Rain = 0
KNH1 111831Z 03015G20KT M03/M06 A3041 RMK A01 T10291057  RH  081%=      5-min Rain = 0
KNH1 111832Z 03017G24KT M03/M06 A3041 RMK A01 T10291057  RH  081%=      5-min Rain = 0
KNH1 111833Z 03020KT M03/M06 A304 RMK A01 T10291058  RH  080%=      5-min Rain = 0
KNH1 111834Z 03019KT M03/M06 A304 RMK A01 T10291060  RH  079%=      5-min Rain = 0
KNH1 111835Z 02019KT M03/M06 A304 RMK A01 T10291061  RH  079%=      5-min Rain = 0
KNH1 111836Z 03018G25KT M03/M06 A3041 RMK A01 T10291061  RH  079%=      5-min Rain = 0
KNH1 111837Z 03019G26KT M03/M06 A304 RMK A01 T10291061  RH  079%=      5-min Rain = 0
KNH1 111838Z 03020G26KT M03/M06 A304 RMK A01 T10281062  RH  078%=      5-min Rain = 0
KNH1 111839Z 03020KT M03/M06 A3041 RMK A01 T10281062  RH  078%=      5-min Rain = 0
KNH1 111840Z 03018KT M03/M06 A304 RMK A01 T10291063  RH  077%=      5-min Rain = 0
KNH1 111841Z 03019KT M03/M06 A304 RMK A01 T10291063  RH  077%=      5-min Rain = 0
KNH1 111842Z 02017KT M03/M06 A304 RMK A01 T10291063  RH  077%=      5-min Rain = 0
KNH1 111843Z 03020G26KT M03/M06 A304 RMK A01 T10291062  RH  078%=      5-min Rain = 0
KNH1 111844Z 03018G23KT M03/M06 A304 RMK A01 T10281063  RH  077%=      5-min Rain = 0
KNH1 111845Z 03016KT M03/M06 A304 RMK A01 T10281063  RH  077%=      5-min Rain = 0
KNH1 111846Z 02015G22KT M03/M06 A304 RMK A01 T10271062  RH  077%=      5-min Rain = 0
KNH1 111847Z 03019KT M03/M06 A304 RMK A01 T10271062  RH  077%=      5-min Rain = 0
KNH1 111848Z 03019KT M03/M06 A3041 RMK A01 T10271063  RH  076%=      5-min Rain = 0
KNH1 111849Z 03019G24KT M03/M06 A304 RMK A01 T10271063  RH  076%=      5-min Rain = 0
KNH1 111850Z 03020G26KT M03/M06 A304 RMK A01 T10271064  RH  075%=      5-min Rain = 0
KNH1 111851Z 03020G25KT M03/M06 A304 RMK A01 T10271064  RH  076%=      5-min Rain = 0
KNH1 111852Z 03018G24KT M03/M07 A304 RMK A01 T10271065  RH  075%=      5-min Rain = 0
KNH1 111853Z 03017G23KT M03/M06 A304 RMK A01 T10271064  RH  076%=      5-min Rain = 0
KNH1 111854Z 03018G23KT M03/M06 A304 RMK A01 T10261064  RH  075%=      5-min Rain = 0
KNH1 111855Z 02017G22KT M03/M06 A304 RMK A01 T10261064  RH  075%=      5-min Rain = 0
KNH1 111856Z 02015KT M03/M06 A304 RMK A01 T10261063  RH  076%=      5-min Rain = 0
KNH1 111857Z 02020G25KT M03/M06 A304 RMK A01 T10251062  RH  076%=      5-min Rain = 0
KNH1 111858Z 02020G25KT M03/M07 A304 RMK A01 T10261065  RH  075%=      5-min Rain = 0
KNH1 111859Z 02016G22KT M03/M07 A304 RMK A01 T10271066  RH  075%=      5-min Rain = 0
KNH1 111900Z 03018G23KT M03/M06 A304 RMK A01 T10271064  RH  075%=      5-min Rain = 0
KNH1 111901Z 02016G21KT M03/M07 A304 RMK A01 T10271065  RH  075%=      5-min Rain = 0
KNH1 111902Z 02014KT M03/M07 A304 RMK A01 T10271065  RH  075%=      5-min Rain = 0
KNH1 111903Z 02015G20KT M03/M06 A304 RMK A01 T10251062  RH  076%=      5-min Rain = 0
KNH1 111904Z 02017G23KT M03/M06 A304 RMK A01 T10251062  RH  075%=      5-min Rain = 0
KNH1 111905Z 03015G21KT M03/M06 A304 RMK A01 T10251063  RH  075%=      5-min Rain = 0
KNH1 111906Z 03017G25KT M03/M06 A3041 RMK A01 T10251062  RH  076%=      5-min Rain = 0
KNH1 111907Z 03015G21KT M03/M06 A304 RMK A01 T10251064  RH  074%=      5-min Rain = 0
KNH1 111908Z 02019G24KT M03/M06 A304 RMK A01 T10251064  RH  075%=      5-min Rain = 0
KNH1 111909Z 02019G25KT M03/M06 A304 RMK A01 T10251064  RH  075%=      5-min Rain = 0
KNH1 111910Z 02016G23KT M03/M06 A304 RMK A01 T10251064  RH  075%=      5-min Rain = 0
KNH1 111911Z 02015G22KT M03/M06 A3041 RMK A01 T10251063  RH  075%=      5-min Rain = 0
KNH1 111912Z 02015G21KT M03/M06 A3041 RMK A01 T10251062  RH  076%=      5-min Rain = 0
KNH1 111913Z 02017G23KT M03/M06 A3041 RMK A01 T10251062  RH  076%=      5-min Rain = 0
KNH1 111914Z 01015G22KT M03/M06 A3041 RMK A01 T10261063  RH  075%=      5-min Rain = 0
KNH1 111915Z 01012G17KT M03/M06 A3041 RMK A01 T10271063  RH  076%=      5-min Rain = 0
KNH1 111916Z 02013G19KT M03/M06 A3041 RMK A01 T10261063  RH  076%=      5-min Rain = 0
KNH1 111917Z 01015G22KT M03/M06 A3041 RMK A01 T10271063  RH  076%=      5-min Rain = 0
KNH1 111918Z 02018G23KT M03/M06 A3041 RMK A01 T10271063  RH  076%=      5-min Rain = 0
KNH1 111919Z 03015G21KT M03/M06 A3041 RMK A01 T10271062  RH  076%=      5-min Rain = 0
KNH1 111920Z 03018G23KT M03/M06 A304 RMK A01 T10251061  RH  076%=      5-min Rain = 0
KNH1 111921Z 02018G24KT M03/M06 A3041 RMK A01 T10261064  RH  075%=      5-min Rain = 0
KNH1 111922Z 02019G28KT M03/M07 A3041 RMK A01 T10271067  RH  074%=      5-min Rain = 0
KNH1 111923Z 02018G25KT M03/M07 A3041 RMK A01 T10281069  RH  074%=      5-min Rain = 0
KNH1 111924Z 02015G21KT M03/M07 A3041 RMK A01 T10291068  RH  074%=      5-min Rain = 0
KNH1 111925Z 02018G25KT M03/M07 A3041 RMK A01 T10281066  RH  075%=      5-min Rain = 0
KNH1 111926Z 03017G22KT M03/M07 A3041 RMK A01 T10271067  RH  074%=      5-min Rain = 0
KNH1 111927Z 02019G26KT M03/M07 A304 RMK A01 T10281067  RH  074%=      5-min Rain = 0
KNH1 111928Z 02018G24KT M03/M07 A3041 RMK A01 T10271067  RH  074%=      5-min Rain = 0
KNH1 111929Z 02018KT M03/M07 A3041 RMK A01 T10261067  RH  074%=      5-min Rain = 0
KNH1 111930Z 02015G22KT M03/M07 A3041 RMK A01 T10261067  RH  073%=      5-min Rain = 0
KNH1 111931Z 02015KT M03/M07 A3041 RMK A01 T10261066  RH  074%=      5-min Rain = 0
KNH1 111932Z 02016G24KT M03/M07 A3041 RMK A01 T10251066  RH  073%=      5-min Rain = 0
KNH1 111933Z 03017G24KT M03/M07 A3041 RMK A01 T10251067  RH  073%=      5-min Rain = 0
KNH1 111934Z 02018G23KT M02/M07 A3041 RMK A01 T10241067  RH  072%=      5-min Rain = 0
KNH1 111935Z 03018KT M02/M07 A3041 RMK A01 T10231068  RH  071%=      5-min Rain = 0
KNH1 111936Z 03018KT M02/M07 A3041 RMK A01 T10231070  RH  071%=      5-min Rain = 0
KNH1 111937Z 03024G31KT M02/M07 A3041 RMK A01 T10241071  RH  070%=      5-min Rain = 0
KNH1 111938Z 03021G27KT M03/M08 A3041 RMK A01 T10251075  RH  068%=      5-min Rain = 0
KNH1 111939Z 03019KT M03/M08 A3041 RMK A01 T10251075  RH  069%=      5-min Rain = 0
KNH1 111940Z 03017G22KT M02/M07 A3041 RMK A01 T10241072  RH  070%=      5-min Rain = 0
KNH1 111941Z 03016KT M02/M07 A3041 RMK A01 T10221070  RH  070%=      5-min Rain = 0
KNH1 111942Z 03021KT M02/M07 A3041 RMK A01 T10211070  RH  069%=      5-min Rain = 0
KNH1 111943Z 03022KT M02/M07 A3041 RMK A01 T10211072  RH  068%=      5-min Rain = 0
KNH1 111944Z 02020G25KT M02/M07 A3041 RMK A01 T10221074  RH  068%=      5-min Rain = 0
KNH1 111945Z 03018G23KT M02/M07 A3041 RMK A01 T10221073  RH  068%=      5-min Rain = 0
KNH1 111946Z 03020G27KT M02/M07 A3041 RMK A01 T10221073  RH  068%=      5-min Rain = 0
KNH1 111947Z 03018KT M02/M07 A3041 RMK A01 T10221074  RH  067%=      5-min Rain = 0
KNH1 111948Z 03015G22KT M02/M07 A3041 RMK A01 T10211072  RH  068%=      5-min Rain = 0
KNH1 111949Z 03022G29KT M02/M07 A3041 RMK A01 T10191071  RH  068%=      5-min Rain = 0
KNH1 111950Z 02016G23KT M02/M07 A3041 RMK A01 T10191072  RH  067%=      5-min Rain = 0
KNH1 111951Z 03018G26KT M02/M07 A3041 RMK A01 T10191070  RH  068%=      5-min Rain = 0
KNH1 111952Z 02015G21KT M02/M07 A3041 RMK A01 T10191071  RH  067%=      5-min Rain = 0
KNH1 111953Z 01019G26KT M02/M07 A3042 RMK A01 T10191071  RH  068%=      5-min Rain = 0
KNH1 111954Z 02016G23KT M02/M07 A3042 RMK A01 T10201072  RH  067%=      5-min Rain = 0
KNH1 111955Z 02015KT M02/M07 A3042 RMK A01 T10191070  RH  068%=      5-min Rain = 0
KNH1 111956Z 03014KT M02/M07 A3042 RMK A01 T10181069  RH  068%=      5-min Rain = 0
KNH1 111957Z 03018G23KT M02/M07 A3041 RMK A01 T10181071  RH  067%=      5-min Rain = 0
KNH1 111958Z 03017G22KT M02/M07 A3042 RMK A01 T10181072  RH  067%=      5-min Rain = 0
KNH1 111959Z 03016G24KT M02/M07 A3042 RMK A01 T10181071  RH  067%=      5-min Rain = 0
KNH1 112000Z 02020KT M02/M07 A3042 RMK A01 T10191072  RH  067%=      5-min Rain = 0
KNH1 112001Z 02017G23KT M02/M07 A3042 RMK A01 T10201073  RH  067%=      5-min Rain = 0
KNH1 112002Z 03017G22KT M02/M07 A3042 RMK A01 T10201073  RH  067%=      5-min Rain = 0
KNH1 112003Z 03014KT M02/M07 A3042 RMK A01 T10211074  RH  067%=      5-min Rain = 0
KNH1 112004Z 03014KT M02/M07 A3042 RMK A01 T10201071  RH  068%=      5-min Rain = 0
KNH1 112005Z 02013KT M02/M07 A3042 RMK A01 T10191069  RH  069%=      5-min Rain = 0
KNH1 112006Z 01018G26KT M02/M07 A3042 RMK A01 T10181070  RH  068%=      5-min Rain = 0
KNH1 112007Z 02018KT M02/M07 A3042 RMK A01 T10181072  RH  067%=      5-min Rain = 0
KNH1 112008Z 03019G24KT M02/M07 A3042 RMK A01 T10191073  RH  066%=      5-min Rain = 0
KNH1 112009Z 03018G23KT M02/M07 A3041 RMK A01 T10191074  RH  066%=      5-min Rain = 0
KNH1 112010Z 02020G26KT M02/M07 A3041 RMK A01 T10191073  RH  066%=      5-min Rain = 0
KNH1 112011Z 02018G24KT M02/M07 A3042 RMK A01 T10191074  RH  066%=      5-min Rain = 0
KNH1 112012Z 02016G23KT M02/M08 A3042 RMK A01 T10191075  RH  066%=      5-min Rain = 0
KNH1 112013Z 03019G24KT M02/M08 A3042 RMK A01 T10191076  RH  065%=      5-min Rain = 0
KNH1 112014Z 02017G25KT M02/M08 A3042 RMK A01 T10201076  RH  065%=      5-min Rain = 0
KNH1 112015Z 01017KT M02/M08 A3043 RMK A01 T10201076  RH  065%=      5-min Rain = 0
KNH1 112016Z 03015G22KT M02/M08 A3043 RMK A01 T10201076  RH  065%=      5-min Rain = 0
KNH1 112017Z 02013G24KT M02/M07 A3043 RMK A01 T10191074  RH  066%=      5-min Rain = 0
KNH1 112018Z 03018KT M02/M07 A3042 RMK A01 T10181073  RH  066%=      5-min Rain = 0
KNH1 112019Z 02016G21KT M02/M08 A3042 RMK A01 T10181076  RH  065%=      5-min Rain = 0
KNH1 112020Z 02013KT M02/M08 A3042 RMK A01 T10191075  RH  065%=      5-min Rain = 0
KNH1 112021Z 01016KT M02/M07 A3043 RMK A01 T10181073  RH  066%=      5-min Rain = 0
KNH1 112022Z 02017G24KT M02/M08 A3043 RMK A01 T10181075  RH  065%=      5-min Rain = 0
KNH1 112023Z 02016G21KT M02/M08 A3043 RMK A01 T10191077  RH  065%=      5-min Rain = 0
KNH1 112024Z 03016G21KT M02/M08 A3043 RMK A01 T10201077  RH  065%=      5-min Rain = 0
KNH1 112025Z 03016KT M02/M08 A3043 RMK A01 T10211078  RH  065%=      5-min Rain = 0
KNH1 112026Z 02018G24KT M02/M08 A3043 RMK A01 T10211077  RH  065%=      5-min Rain = 0
KNH1 112027Z 02017G22KT M02/M08 A3043 RMK A01 T10211078  RH  065%=      5-min Rain = 0
KNH1 112028Z 03017G22KT M02/M08 A3043 RMK A01 T10211078  RH  065%=      5-min Rain = 0
KNH1 112029Z 02015KT M02/M08 A3043 RMK A01 T10211078  RH  065%=      5-min Rain = 0
KNH1 112030Z 01017KT M02/M08 A3043 RMK A01 T10211078  RH  065%=      5-min Rain = 0
KNH1 112031Z 02013G19KT M02/M08 A3043 RMK A01 T10211077  RH  065%=      5-min Rain = 0
KNH1 112032Z 02021G27KT M02/M08 A3043 RMK A01 T10201077  RH  065%=      5-min Rain = 0
KNH1 112033Z 02015G21KT M02/M08 A3043 RMK A01 T10211080  RH  064%=      5-min Rain = 0
KNH1 112034Z 02017G23KT M02/M08 A3043 RMK A01 T10221079  RH  065%=      5-min Rain = 0
KNH1 112035Z 01017KT M02/M08 A3043 RMK A01 T10221079  RH  065%=      5-min Rain = 0
KNH1 112036Z 02021G31KT M02/M08 A3043 RMK A01 T10221079  RH  065%=      5-min Rain = 0
KNH1 112037Z 02019G25KT M02/M08 A3043 RMK A01 T10211079  RH  065%=      5-min Rain = 0
KNH1 112038Z 02017G22KT M02/M08 A3043 RMK A01 T10221079  RH  065%=      5-min Rain = 0
KNH1 112039Z 02014G19KT M02/M08 A3043 RMK A01 T10211079  RH  065%=      5-min Rain = 0
KNH1 112040Z 02017KT M02/M08 A3043 RMK A01 T10201079  RH  064%=      5-min Rain = 0
KNH1 112041Z 03020KT M02/M08 A3042 RMK A01 T10201079  RH  064%=      5-min Rain = 0
KNH1 112042Z 03019KT M02/M08 A3042 RMK A01 T10201081  RH  063%=      5-min Rain = 0
KNH1 112043Z 02014G20KT M02/M08 A3043 RMK A01 T10201081  RH  063%=      5-min Rain = 0
KNH1 112044Z 02016G23KT M02/M08 A3043 RMK A01 T10201081  RH  063%=      5-min Rain = 0
KNH1 112045Z 03019G24KT M02/M08 A3042 RMK A01 T10201082  RH  063%=      5-min Rain = 0
KNH1 112046Z 03019G25KT M02/M08 A3042 RMK A01 T10201082  RH  063%=      5-min Rain = 0
KNH1 112047Z 03015G20KT M02/M08 A3043 RMK A01 T10201083  RH  062%=      5-min Rain = 0
KNH1 112048Z 03018G26KT M02/M08 A3043 RMK A01 T10191081  RH  062%=      5-min Rain = 0
KNH1 112049Z 03014KT M02/M08 A3043 RMK A01 T10191082  RH  062%=      5-min Rain = 0
KNH1 112050Z 03017G24KT M02/M08 A3043 RMK A01 T10191081  RH  062%=      5-min Rain = 0
KNH1 112051Z 03019KT M02/M08 A3043 RMK A01 T10181083  RH  061%=      5-min Rain = 0
KNH1 112052Z 03021G27KT M02/M08 A3043 RMK A01 T10191084  RH  061%=      5-min Rain = 0
KNH1 112053Z 03015KT M02/M08 A3043 RMK A01 T10191084  RH  061%=      5-min Rain = 0
KNH1 112054Z 03017G24KT M02/M08 A3043 RMK A01 T10191082  RH  062%=      5-min Rain = 0
KNH1 112055Z 02018KT M02/M08 A3043 RMK A01 T10191083  RH  062%=      5-min Rain = 0
KNH1 112056Z 02016G22KT M02/M08 A3043 RMK A01 T10191084  RH  062%=      5-min Rain = 0
KNH1 112057Z 02015G20KT M02/M08 A3043 RMK A01 T10191084  RH  062%=      5-min Rain = 0
KNH1 112058Z 02015G21KT M02/M08 A3044 RMK A01 T10191081  RH  063%=      5-min Rain = 0
KNH1 112059Z 02018G23KT M02/M08 A3044 RMK A01 T10181081  RH  062%=      5-min Rain = 0
KNH1 112100Z 02016KT M02/M09 A3044 RMK A01 T10191085  RH  061%=      5-min Rain = 0
KNH1 112101Z 03017G23KT M02/M09 A3044 RMK A01 T10201085  RH  061%=      5-min Rain = 0
KNH1 112102Z 02021G27KT M02/M09 A3044 RMK A01 T10201085  RH  061%=      5-min Rain = 0
KNH1 112103Z 02020KT M02/M09 A3044 RMK A01 T10201087  RH  060%=      5-min Rain = 0
KNH1 112104Z 03016G21KT M02/M09 A3044 RMK A01 T10201087  RH  061%=      5-min Rain = 0
KNH1 112105Z 01016G25KT M02/M09 A3044 RMK A01 T10201086  RH  061%=      5-min Rain = 0
KNH1 112106Z 02018G23KT M02/M08 A3044 RMK A01 T10201084  RH  061%=      5-min Rain = 0
KNH1 112107Z 02016G24KT M02/M08 A3044 RMK A01 T10201084  RH  061%=      5-min Rain = 0
KNH1 112108Z 03017G25KT M02/M09 A3044 RMK A01 T10191085  RH  061%=      5-min Rain = 0
KNH1 112109Z 01013KT M02/M09 A3044 RMK A01 T10201085  RH  061%=      5-min Rain = 0
KNH1 112110Z 02016G22KT M02/M08 A3044 RMK A01 T10181082  RH  062%=      5-min Rain = 0
KNH1 112111Z 03016KT M02/M08 A3044 RMK A01 T10181084  RH  061%=      5-min Rain = 0
KNH1 112112Z 02014G19KT M02/M08 A3044 RMK A01 T10181083  RH  061%=      5-min Rain = 0
KNH1 112113Z 03012G19KT M02/M08 A3045 RMK A01 T10181082  RH  061%=      5-min Rain = 0
KNH1 112114Z 03017G25KT M02/M08 A3045 RMK A01 T10171083  RH  061%=      5-min Rain = 0
KNH1 112115Z 03015G21KT M02/M09 A3045 RMK A01 T10181087  RH  059%=      5-min Rain = 0
KNH1 112116Z 02015G21KT M02/M09 A3045 RMK A01 T10181086  RH  060%=      5-min Rain = 0
KNH1 112117Z 02014G19KT M02/M09 A3046 RMK A01 T10191086  RH  060%=      5-min Rain = 0
KNH1 112118Z 03018G23KT M02/M09 A3045 RMK A01 T10191086  RH  060%=      5-min Rain = 0
KNH1 112119Z 02014KT M02/M09 A3046 RMK A01 T10191087  RH  060%=      5-min Rain = 0
KNH1 112120Z 03015G20KT M02/M09 A3046 RMK A01 T10191086  RH  060%=      5-min Rain = 0
KNH1 112121Z 03015G20KT M02/M09 A3046 RMK A01 T10191086  RH  060%=      5-min Rain = 0
KNH1 112122Z 03017G22KT M02/M09 A3046 RMK A01 T10191086  RH  060%=      5-min Rain = 0
KNH1 112123Z 03015KT M02/M09 A3046 RMK A01 T10181087  RH  059%=      5-min Rain = 0
KNH1 112124Z 02013KT M02/M09 A3046 RMK A01 T10181087  RH  060%=      5-min Rain = 0
KNH1 112125Z 02014KT M02/M09 A3046 RMK A01 T10181087  RH  059%=      5-min Rain = 0
KNH1 112126Z 01016KT M02/M09 A3047 RMK A01 T10181086  RH  060%=      5-min Rain = 0
KNH1 112127Z 01016G22KT M02/M09 A3046 RMK A01 T10181088  RH  059%=      5-min Rain = 0
KNH1 112128Z 02015G20KT M02/M09 A3046 RMK A01 T10191089  RH  059%=      5-min Rain = 0
KNH1 112129Z 02017G22KT M02/M09 A3046 RMK A01 T10201089  RH  059%=      5-min Rain = 0
KNH1 112130Z 02015G20KT M02/M09 A3047 RMK A01 T10191089  RH  059%=      5-min Rain = 0
KNH1 112131Z 02014G20KT M02/M09 A3047 RMK A01 T10191088  RH  059%=      5-min Rain = 0
KNH1 112132Z 01013G18KT M02/M09 A3047 RMK A01 T10191086  RH  060%=      5-min Rain = 0
KNH1 112133Z 01017G22KT M02/M09 A3047 RMK A01 T10181087  RH  059%=      5-min Rain = 0
KNH1 112134Z 01015G21KT M02/M09 A3047 RMK A01 T10191087  RH  059%=      5-min Rain = 0
KNH1 112135Z 01016KT M02/M09 A3047 RMK A01 T10181087  RH  060%=      5-min Rain = 0
KNH1 112136Z 02013G18KT M02/M09 A3047 RMK A01 T10181087  RH  059%=      5-min Rain = 0
KNH1 112137Z 02014KT M02/M09 A3047 RMK A01 T10181086  RH  060%=      5-min Rain = 0
KNH1 112138Z 02011KT M02/M09 A3047 RMK A01 T10181085  RH  060%=      5-min Rain = 0
KNH1 112139Z 02012KT M02/M08 A3047 RMK A01 T10171083  RH  060%=      5-min Rain = 0
KNH1 112140Z 02009KT M02/M08 A3047 RMK A01 T10161082  RH  061%=      5-min Rain = 0
KNH1 112141Z 01013KT M02/M08 A3047 RMK A01 T10151081  RH  061%=      5-min Rain = 0
KNH1 112142Z 01014KT M02/M09 A3047 RMK A01 T10151085  RH  059%=      5-min Rain = 0
KNH1 112143Z 01012KT M02/M09 A3047 RMK A01 T10161086  RH  059%=      5-min Rain = 0
KNH1 112144Z 02011KT M02/M09 A3047 RMK A01 T10161086  RH  059%=      5-min Rain = 0
KNH1 112145Z 01014KT M02/M08 A3047 RMK A01 T10151084  RH  059%=      5-min Rain = 0
KNH1 112146Z 02014KT M02/M09 A3047 RMK A01 T10151085  RH  059%=      5-min Rain = 0
KNH1 112147Z 01016G22KT M02/M09 A3047 RMK A01 T10151085  RH  059%=      5-min Rain = 0
KNH1 112148Z 01016G21KT M02/M09 A3047 RMK A01 T10151086  RH  058%=      5-min Rain = 0
KNH1 112149Z 01014KT M02/M09 A3047 RMK A01 T10151087  RH  058%=      5-min Rain = 0
KNH1 112150Z 01014G19KT M02/M09 A3047 RMK A01 T10151086  RH  058%=      5-min Rain = 0
KNH1 112151Z 02017G22KT M02/M09 A3047 RMK A01 T10151087  RH  058%=      5-min Rain = 0
KNH1 112152Z 02014KT M02/M09 A3047 RMK A01 T10151088  RH  058%=      5-min Rain = 0
KNH1 112153Z 02014G20KT M01/M09 A3047 RMK A01 T10141086  RH  058%=      5-min Rain = 0
KNH1 112154Z 02015KT M01/M09 A3047 RMK A01 T10131085  RH  058%=      5-min Rain = 0
KNH1 112155Z 02011G16KT M01/M09 A3047 RMK A01 T10131085  RH  058%=      5-min Rain = 0
KNH1 112156Z 02016G22KT M01/M08 A3047 RMK A01 T10121083  RH  059%=      5-min Rain = 0
KNH1 112157Z 03017KT M01/M09 A3047 RMK A01 T10121085  RH  058%=      5-min Rain = 0
KNH1 112158Z 02017G22KT M01/M09 A3047 RMK A01 T10131087  RH  057%=      5-min Rain = 0
KNH1 112159Z 03016KT M01/M09 A3047 RMK A01 T10131087  RH  057%=      5-min Rain = 0
KNH1 112200Z 02015KT M01/M09 A3047 RMK A01 T10131087  RH  057%=      5-min Rain = 0
KNH1 112201Z 02017KT M01/M09 A3047 RMK A01 T10131087  RH  057%=      5-min Rain = 0
KNH1 112202Z 03016KT M01/M09 A3047 RMK A01 T10131088  RH  057%=      5-min Rain = 0
KNH1 112203Z 03018G23KT M01/M09 A3047 RMK A01 T10131088  RH  057%=      5-min Rain = 0
KNH1 112204Z 02014KT M01/M09 A3048 RMK A01 T10131088  RH  057%=      5-min Rain = 0
KNH1 112205Z 02012KT M01/M09 A3048 RMK A01 T10131086  RH  057%=      5-min Rain = 0
KNH1 112206Z 03014G25KT M01/M09 A3048 RMK A01 T10121085  RH  058%=      5-min Rain = 0
KNH1 112207Z 03018KT M01/M09 A3047 RMK A01 T10121087  RH  057%=      5-min Rain = 0
KNH1 112208Z 02017G22KT M01/M09 A3048 RMK A01 T10131089  RH  056%=      5-min Rain = 0
KNH1 112209Z 02016G21KT M01/M09 A3048 RMK A01 T10131089  RH  056%=      5-min Rain = 0
KNH1 112210Z 03016KT M01/M09 A3048 RMK A01 T10131089  RH  056%=      5-min Rain = 0
KNH1 112211Z 03018KT M01/M09 A3048 RMK A01 T10131090  RH  056%=      5-min Rain = 0
KNH1 112212Z 03016KT M01/M09 A3048 RMK A01 T10131091  RH  055%=      5-min Rain = 0
KNH1 112213Z 03015G21KT M01/M09 A3048 RMK A01 T10141091  RH  056%=      5-min Rain = 0
KNH1 112214Z 03016KT M01/M09 A3048 RMK A01 T10131089  RH  056%=      5-min Rain = 0
KNH1 112215Z 04014KT M01/M09 A3048 RMK A01 T10131090  RH  056%=      5-min Rain = 0
KNH1 112216Z 03014G19KT M01/M09 A3047 RMK A01 T10131090  RH  056%=      5-min Rain = 0
KNH1 112217Z 03015KT M01/M09 A3047 RMK A01 T10131089  RH  056%=      5-min Rain = 0
KNH1 112218Z 02015KT M01/M09 A3047 RMK A01 T10131089  RH  056%=      5-min Rain = 0
KNH1 112219Z 03015KT M01/M09 A3047 RMK A01 T10121088  RH  057%=      5-min Rain = 0
KNH1 112220Z 02017G23KT M01/M09 A3047 RMK A01 T10121087  RH  057%=      5-min Rain = 0
KNH1 112221Z 03020KT M01/M09 A3047 RMK A01 T10121090  RH  056%=      5-min Rain = 0
KNH1 112222Z 03017KT M01/M09 A3047 RMK A01 T10131093  RH  055%=      5-min Rain = 0
KNH1 112223Z 03016G22KT M01/M09 A3047 RMK A01 T10141093  RH  055%=      5-min Rain = 0
KNH1 112224Z 03015G22KT M01/M09 A3047 RMK A01 T10141091  RH  056%=      5-min Rain = 0
KNH1 112225Z 03017G22KT M01/M09 A3047 RMK A01 T10141090  RH  056%=      5-min Rain = 0
KNH1 112226Z 03016KT M01/M09 A3047 RMK A01 T10131091  RH  056%=      5-min Rain = 0
KNH1 112227Z 03018G24KT M01/M09 A3047 RMK A01 T10141092  RH  055%=      5-min Rain = 0
KNH1 112228Z 03017KT M01/M09 A3047 RMK A01 T10141093  RH  055%=      5-min Rain = 0
KNH1 112229Z 03019KT M01/M09 A3048 RMK A01 T10141093  RH  055%=      5-min Rain = 0
KNH1 112230Z 03018KT M01/M09 A3048 RMK A01 T10141092  RH  055%=      5-min Rain = 0
KNH1 112231Z 03017G25KT M01/M09 A3048 RMK A01 T10141092  RH  055%=      5-min Rain = 0
KNH1 112232Z 03014KT M01/M09 A3048 RMK A01 T10141092  RH  056%=      5-min Rain = 0
KNH1 112233Z 03015KT M01/M09 A3048 RMK A01 T10141091  RH  056%=      5-min Rain = 0
KNH1 112234Z 03016KT M01/M09 A3048 RMK A01 T10141091  RH  056%=      5-min Rain = 0
KNH1 112235Z 02016G21KT M01/M09 A3048 RMK A01 T10141091  RH  056%=      5-min Rain = 0
KNH1 112236Z 02017KT M01/M09 A3048 RMK A01 T10141091  RH  055%=      5-min Rain = 0
KNH1 112237Z 03015G21KT M01/M09 A3048 RMK A01 T10141092  RH  055%=      5-min Rain = 0
KNH1 112238Z 02015G21KT M01/M09 A3048 RMK A01 T10141092  RH  055%=      5-min Rain = 0
KNH1 112239Z 03013G18KT M01/M09 A3048 RMK A01 T10141091  RH  056%=      5-min Rain = 0
KNH1 112240Z 03017KT M01/M09 A3048 RMK A01 T10131089  RH  056%=      5-min Rain = 0
KNH1 112241Z 03017G22KT M01/M09 A3048 RMK A01 T10131090  RH  056%=      5-min Rain = 0
KNH1 112242Z 03017KT M01/M09 A3048 RMK A01 T10131090  RH  056%=      5-min Rain = 0
KNH1 112243Z 03018KT M01/M09 A3048 RMK A01 T10131092  RH  055%=      5-min Rain = 0
KNH1 112244Z 03015G21KT M01/M09 A3048 RMK A01 T10131091  RH  055%=      5-min Rain = 0
KNH1 112245Z 03016KT M01/M09 A3048 RMK A01 T10131091  RH  055%=      5-min Rain = 0
KNH1 112246Z 03012KT M01/M09 A3048 RMK A01 T10131091  RH  056%=      5-min Rain = 0
KNH1 112247Z 03014G21KT M01/M09 A3048 RMK A01 T10131088  RH  057%=      5-min Rain = 0
KNH1 112248Z 03015KT M01/M09 A3048 RMK A01 T10131089  RH  056%=      5-min Rain = 0
KNH1 112249Z 03014KT M01/M09 A3048 RMK A01 T10131090  RH  056%=      5-min Rain = 0
KNH1 112250Z 03014KT M01/M09 A3048 RMK A01 T10131089  RH  056%=      5-min Rain = 0
KNH1 112251Z 02016KT M01/M09 A3048 RMK A01 T10131090  RH  056%=      5-min Rain = 0
KNH1 112252Z 03017KT M01/M09 A3048 RMK A01 T10131091  RH  056%=      5-min Rain = 0
KNH1 112253Z 03016KT M01/M09 A3048 RMK A01 T10131091  RH  055%=      5-min Rain = 0
KNH1 112254Z 03014KT M01/M09 A3048 RMK A01 T10131089  RH  056%=      5-min Rain = 0
KNH1 112255Z 02012KT M01/M09 A3048 RMK A01 T10131088  RH  057%=      5-min Rain = 0
KNH1 112256Z 02013G19KT M01/M09 A3048 RMK A01 T10121086  RH  057%=      5-min Rain = 0
KNH1 112257Z 02011KT M01/M09 A3048 RMK A01 T10121085  RH  057%=      5-min Rain = 0
KNH1 112258Z 02010KT M01/M08 A3049 RMK A01 T10121084  RH  058%=      5-min Rain = 0
KNH1 112259Z 03013KT M01/M08 A3049 RMK A01 T10121084  RH  058%=      5-min Rain = 0
KNH1 112300Z 03013KT M01/M09 A3048 RMK A01 T10121085  RH  057%=      5-min Rain = 0
KNH1 112301Z 03015KT M01/M09 A3048 RMK A01 T10121086  RH  057%=      5-min Rain = 0
KNH1 112302Z 02014G20KT M01/M09 A3049 RMK A01 T10121085  RH  057%=      5-min Rain = 0
KNH1 112303Z 02013KT M01/M09 A3049 RMK A01 T10121086  RH  057%=      5-min Rain = 0
KNH1 112304Z 02013KT M01/M09 A3048 RMK A01 T10121087  RH  057%=      5-min Rain = 0
KNH1 112305Z 01014KT M01/M09 A3048 RMK A01 T10121087  RH  057%=      5-min Rain = 0
KNH1 112306Z 02011KT M01/M09 A3049 RMK A01 T10121086  RH  057%=      5-min Rain = 0
KNH1 112307Z 03010KT M01/M09 A3048 RMK A01 T10121085  RH  058%=      5-min Rain = 0
KNH1 112308Z 03015G20KT M01/M08 A3048 RMK A01 T10121084  RH  058%=      5-min Rain = 0
KNH1 112309Z 03014G20KT M01/M09 A3048 RMK A01 T10121087  RH  057%=      5-min Rain = 0
KNH1 112310Z 03015KT M01/M09 A3048 RMK A01 T10121089  RH  056%=      5-min Rain = 0
KNH1 112311Z 02016KT M01/M09 A3048 RMK A01 T10121089  RH  056%=      5-min Rain = 0
KNH1 112312Z 03014KT M01/M09 A3048 RMK A01 T10131089  RH  056%=      5-min Rain = 0
KNH1 112313Z 02011G16KT M01/M09 A3049 RMK A01 T10121088  RH  056%=      5-min Rain = 0
KNH1 112314Z 01015G21KT M01/M09 A3049 RMK A01 T10131088  RH  056%=      5-min Rain = 0
KNH1 112315Z 02011G18KT M01/M09 A3049 RMK A01 T10121088  RH  056%=      5-min Rain = 0
KNH1 112316Z 02013KT M01/M09 A3049 RMK A01 T10121087  RH  057%=      5-min Rain = 0
KNH1 112317Z 02014KT M01/M09 A3049 RMK A01 T10131089  RH  056%=      5-min Rain = 0
KNH1 112318Z 02014KT M01/M09 A3049 RMK A01 T10131089  RH  056%=      5-min Rain = 0
KNH1 112319Z 02014G20KT M01/M09 A3049 RMK A01 T10121089  RH  056%=      5-min Rain = 0
KNH1 112320Z 02015KT M01/M09 A3049 RMK A01 T10131090  RH  056%=      5-min Rain = 0
KNH1 112321Z 03013KT M01/M09 A3049 RMK A01 T10121091  RH  055%=      5-min Rain = 0
KNH1 112322Z 02013KT M01/M09 A3049 RMK A01 T10131090  RH  056%=      5-min Rain = 0
KNH1 112323Z 01011KT M01/M09 A3049 RMK A01 T10121089  RH  056%=      5-min Rain = 0
KNH1 112324Z 01012G18KT M01/M09 A3049 RMK A01 T10121088  RH  056%=      5-min Rain = 0
KNH1 112325Z 01012KT M01/M09 A3049 RMK A01 T10121089  RH  056%=      5-min Rain = 0
KNH1 112326Z 02011KT M01/M09 A305 RMK A01 T10121089  RH  056%=      5-min Rain = 0
KNH1 112327Z 03013KT M01/M09 A305 RMK A01 T10121087  RH  056%=      5-min Rain = 0
KNH1 112328Z 02011G16KT M01/M09 A305 RMK A01 T10121088  RH  056%=      5-min Rain = 0
KNH1 112329Z 02011KT M01/M09 A305 RMK A01 T10121088  RH  056%=      5-min Rain = 0
KNH1 112330Z 02010KT M01/M09 A305 RMK A01 T10111087  RH  057%=      5-min Rain = 0
KNH1 112331Z 02011KT M01/M09 A305 RMK A01 T10111087  RH  057%=      5-min Rain = 0
KNH1 112332Z 03014G19KT M01/M09 A305 RMK A01 T10111088  RH  056%=      5-min Rain = 0
KNH1 112333Z 03013KT M01/M09 A305 RMK A01 T10111090  RH  055%=      5-min Rain = 0
KNH1 112334Z 02012G17KT M01/M09 A305 RMK A01 T10111090  RH  055%=      5-min Rain = 0
KNH1 112335Z 02014KT M01/M09 A305 RMK A01 T10111089  RH  055%=      5-min Rain = 0
KNH1 112336Z 01012KT M01/M09 A305 RMK A01 T10111090  RH  055%=      5-min Rain = 0
KNH1 112337Z 02010KT M01/M09 A305 RMK A01 T10111089  RH  055%=      5-min Rain = 0
KNH1 112338Z 02011KT M01/M09 A305 RMK A01 T10101087  RH  056%=      5-min Rain = 0
KNH1 112339Z 03012G18KT M01/M09 A305 RMK A01 T10101086  RH  056%=      5-min Rain = 0
KNH1 112340Z 03015KT M01/M09 A305 RMK A01 T10101088  RH  056%=      5-min Rain = 0
KNH1 112341Z 01014KT M01/M09 A305 RMK A01 T10101090  RH  055%=      5-min Rain = 0
KNH1 112342Z 03014KT M01/M09 A305 RMK A01 T10101091  RH  054%=      5-min Rain = 0
KNH1 112343Z 02012G18KT M01/M09 A3051 RMK A01 T10101090  RH  054%=      5-min Rain = 0
KNH1 112344Z 03014KT M01/M09 A3051 RMK A01 T10101091  RH  054%=      5-min Rain = 0
KNH1 112345Z 03012G17KT M01/M09 A3051 RMK A01 T10101092  RH  054%=      5-min Rain = 0
KNH1 112346Z 04014G19KT M01/M09 A3051 RMK A01 T10101092  RH  054%=      5-min Rain = 0
KNH1 112347Z 03011KT M01/M09 A3051 RMK A01 T10101091  RH  054%=      5-min Rain = 0
KNH1 112348Z 02014KT M01/M09 A3051 RMK A01 T10101091  RH  054%=      5-min Rain = 0
KNH1 112349Z 03011KT M01/M09 A3051 RMK A01 T10101092  RH  054%=      5-min Rain = 0
KNH1 112350Z 03013KT M01/M09 A3051 RMK A01 T10101091  RH  054%=      5-min Rain = 0
KNH1 112351Z 03016KT M01/M09 A3051 RMK A01 T10101091  RH  054%=      5-min Rain = 0
KNH1 112352Z 03014KT M01/M09 A3051 RMK A01 T10111093  RH  054%=      5-min Rain = 0
KNH1 112353Z 03013KT M01/M09 A3051 RMK A01 T10111094  RH  053%=      5-min Rain = 0
KNH1 112354Z 03013KT M01/M09 A3051 RMK A01 T10111092  RH  054%=      5-min Rain = 0
KNH1 112355Z 03011KT M01/M09 A3051 RMK A01 T10111092  RH  054%=      5-min Rain = 0
KNH1 112356Z 03013KT M01/M09 A3051 RMK A01 T10111091  RH  055%=      5-min Rain = 0
KNH1 112357Z 03015KT M01/M09 A3051 RMK A01 T10111092  RH  054%=      5-min Rain = 0
KNH1 112358Z 03015KT M01/M09 A3051 RMK A01 T10111093  RH  054%=      5-min Rain = 0
KNH1 112359Z 02010G16KT M01/M09 A3051 RMK A01 T10111092  RH  054%=      5-min Rain = 0
KNH1 120000Z 03011KT M01/M09 A3051 RMK A01 T10111090  RH  055%=      5-min Rain = 0
KNH1 120001Z 03012KT M01/M09 A3051 RMK A01 T10121090  RH  055%=      5-min Rain = 0
KNH1 120002Z 02012KT M01/M09 A3051 RMK A01 T10121090  RH  055%=      5-min Rain = 0
KNH1 120003Z 02010KT M01/M09 A3051 RMK A01 T10111089  RH  056%=      5-min Rain = 0
KNH1 120004Z 03009KT M01/M09 A3052 RMK A01 T10121088  RH  056%=      5-min Rain = 0
KNH1 120005Z 02011G17KT M01/M09 A3052 RMK A01 T10121087  RH  057%=      5-min Rain = 0
KNH1 120006Z 03015KT M01/M09 A3051 RMK A01 T10121089  RH  056%=      5-min Rain = 0
KNH1 120007Z 02012KT M01/M09 A3052 RMK A01 T10111092  RH  054%=      5-min Rain = 0
KNH1 120008Z 03011KT M01/M09 A3052 RMK A01 T10111091  RH  055%=      5-min Rain = 0
KNH1 120009Z 03013KT M01/M09 A3052 RMK A01 T10111091  RH  055%=      5-min Rain = 0
KNH1 120010Z 03012KT M01/M09 A3052 RMK A01 T10111090  RH  055%=      5-min Rain = 0
KNH1 120011Z 02011KT M01/M09 A3052 RMK A01 T10111090  RH  055%=      5-min Rain = 0
KNH1 120012Z 03011KT M01/M09 A3052 RMK A01 T10111089  RH  055%=      5-min Rain = 0
KNH1 120013Z 03009KT M01/M09 A3052 RMK A01 T10111089  RH  056%=      5-min Rain = 0
KNH1 120014Z 03010KT M01/M09 A3052 RMK A01 T10111088  RH  056%=      5-min Rain = 0
KNH1 120015Z 03010KT M01/M09 A3052 RMK A01 T10111088  RH  056%=      5-min Rain = 0
KNH1 120016Z 02008KT M01/M09 A3052 RMK A01 T10121088  RH  056%=      5-min Rain = 0
KNH1 120017Z 03008KT M01/M09 A3052 RMK A01 T10121086  RH  057%=      5-min Rain = 0
KNH1 120018Z 03010KT M01/M09 A3052 RMK A01 T10121086  RH  057%=      5-min Rain = 0
KNH1 120019Z 02011KT M01/M09 A3052 RMK A01 T10121087  RH  057%=      5-min Rain = 0
KNH1 120020Z 02012KT M01/M09 A3052 RMK A01 T10121089  RH  056%=      5-min Rain = 0
KNH1 120021Z 03010G15KT M01/M09 A3052 RMK A01 T10121090  RH  056%=      5-min Rain = 0
KNH1 120022Z 03013KT M01/M09 A3052 RMK A01 T10121090  RH  055%=      5-min Rain = 0
KNH1 120023Z 03011KT M01/M09 A3052 RMK A01 T10121092  RH  054%=      5-min Rain = 0
KNH1 120024Z 03011KT M01/M09 A3052 RMK A01 T10121092  RH  055%=      5-min Rain = 0
KNH1 120025Z 02012KT M01/M09 A3052 RMK A01 T10111091  RH  055%=      5-min Rain = 0
KNH1 120026Z 03011KT M01/M09 A3052 RMK A01 T10121091  RH  055%=      5-min Rain = 0
KNH1 120027Z 02014G19KT M01/M09 A3052 RMK A01 T10121091  RH  055%=      5-min Rain = 0
KNH1 120028Z 03013KT M01/M09 A3052 RMK A01 T10121093  RH  054%=      5-min Rain = 0
KNH1 120029Z 02011KT M01/M09 A3052 RMK A01 T10121093  RH  054%=      5-min Rain = 0
KNH1 120030Z 02011KT M01/M09 A3052 RMK A01 T10111092  RH  054%=      5-min Rain = 0
KNH1 120031Z 02012KT M01/M09 A3052 RMK A01 T10121092  RH  055%=      5-min Rain = 0
KNH1 120032Z 03010G15KT M01/M09 A3052 RMK A01 T10121091  RH  055%=      5-min Rain = 0
KNH1 120033Z 02010G15KT M01/M09 A3052 RMK A01 T10121091  RH  055%=      5-min Rain = 0
KNH1 120034Z 02011KT M01/M09 A3052 RMK A01 T10121090  RH  055%=      5-min Rain = 0
KNH1 120035Z 03011KT M01/M09 A3052 RMK A01 T10111091  RH  055%=      5-min Rain = 0
KNH1 120036Z 02012KT M01/M09 A3052 RMK A01 T10121091  RH  055%=      5-min Rain = 0
KNH1 120037Z 02012KT M01/M09 A3052 RMK A01 T10121091  RH  055%=      5-min Rain = 0
KNH1 120038Z 02012KT M01/M09 A3052 RMK A01 T10121091  RH  055%=      5-min Rain = 0
KNH1 120039Z 02012KT M01/M09 A3052 RMK A01 T10121091  RH  055%=      5-min Rain = 0
KNH1 120040Z 03009KT M01/M09 A3052 RMK A01 T10121090  RH  055%=      5-min Rain = 0
KNH1 120041Z 03008KT M01/M09 A3053 RMK A01 T10121088  RH  056%=      5-min Rain = 0
KNH1 120042Z 03009KT M01/M09 A3053 RMK A01 T10121087  RH  057%=      5-min Rain = 0
KNH1 120043Z 03011KT M01/M09 A3053 RMK A01 T10121086  RH  057%=      5-min Rain = 0
KNH1 120044Z 03012KT M01/M09 A3053 RMK A01 T10121088  RH  056%=      5-min Rain = 0
KNH1 120045Z 03010KT M01/M09 A3053 RMK A01 T10121088  RH  056%=      5-min Rain = 0
KNH1 120046Z 03010KT M01/M09 A3053 RMK A01 T10121087  RH  056%=      5-min Rain = 0
KNH1 120047Z 03010KT M01/M09 A3053 RMK A01 T10121088  RH  056%=      5-min Rain = 0
KNH1 120048Z 02011KT M01/M09 A3053 RMK A01 T10111088  RH  056%=      5-min Rain = 0
KNH1 120049Z 03010KT M01/M09 A3053 RMK A01 T10111088  RH  056%=      5-min Rain = 0
KNH1 120050Z 03011KT M01/M09 A3053 RMK A01 T10111089  RH  055%=      5-min Rain = 0
KNH1 120051Z 03012KT M01/M09 A3053 RMK A01 T10111089  RH  056%=      5-min Rain = 0
KNH1 120052Z 02011KT M01/M09 A3053 RMK A01 T10111088  RH  056%=      5-min Rain = 0
KNH1 120053Z 03010KT M01/M09 A3053 RMK A01 T10111088  RH  056%=      5-min Rain = 0
KNH1 120054Z 03011G17KT M01/M09 A3052 RMK A01 T10111088  RH  056%=      5-min Rain = 0
KNH1 120055Z 03010KT M01/M09 A3053 RMK A01 T10111088  RH  056%=      5-min Rain = 0
KNH1 120056Z 02012G17KT M01/M09 A3053 RMK A01 T10111088  RH  056%=      5-min Rain = 0
KNH1 120057Z 03014KT M01/M09 A3052 RMK A01 T10111089  RH  055%=      5-min Rain = 0
KNH1 120058Z 04013KT M01/M09 A3053 RMK A01 T10111092  RH  054%=      5-min Rain = 0
KNH1 120059Z 03011G17KT M01/M09 A3053 RMK A01 T10111093  RH  054%=      5-min Rain = 0
KNH1 120100Z 03014G19KT M01/M09 A3053 RMK A01 T10111093  RH  054%=      5-min Rain = 0
KNH1 120101Z 03014KT M01/M09 A3053 RMK A01 T10111094  RH  053%=      5-min Rain = 0
KNH1 120102Z 03012KT M01/M09 A3053 RMK A01 T10111094  RH  053%=      5-min Rain = 0
KNH1 120103Z 03012KT M01/M09 A3053 RMK A01 T10111094  RH  053%=      5-min Rain = 0
KNH1 120104Z 03014KT M01/M09 A3053 RMK A01 T10121094  RH  053%=      5-min Rain = 0
KNH1 120105Z 04012G17KT M01/M09 A3053 RMK A01 T10121093  RH  054%=      5-min Rain = 0
KNH1 120106Z 03013KT M01/M09 A3053 RMK A01 T10121093  RH  054%=      5-min Rain = 0
KNH1 120107Z 03010KT M01/M09 A3053 RMK A01 T10121093  RH  054%=      5-min Rain = 0
KNH1 120108Z 02010KT M01/M09 A3054 RMK A01 T10121092  RH  055%=      5-min Rain = 0
KNH1 120109Z 03010KT M01/M09 A3054 RMK A01 T10121091  RH  055%=      5-min Rain = 0
KNH1 120110Z 03008KT M01/M09 A3054 RMK A01 T10121090  RH  055%=      5-min Rain = 0
KNH1 120111Z 02009KT M01/M09 A3054 RMK A01 T10131089  RH  056%=      5-min Rain = 0
KNH1 120112Z 03012KT M01/M09 A3054 RMK A01 T10131090  RH  056%=      5-min Rain = 0
KNH1 120113Z 02013KT M01/M09 A3054 RMK A01 T10121091  RH  055%=      5-min Rain = 0
KNH1 120114Z 03011KT M01/M09 A3054 RMK A01 T10121092  RH  055%=      5-min Rain = 0
KNH1 120115Z 02011KT M01/M09 A3054 RMK A01 T10131092  RH  055%=      5-min Rain = 0
KNH1 120116Z 03011KT M01/M09 A3054 RMK A01 T10131090  RH  056%=      5-min Rain = 0
KNH1 120117Z 02012KT M01/M09 A3054 RMK A01 T10121090  RH  056%=      5-min Rain = 0
KNH1 120118Z 03010KT M01/M09 A3053 RMK A01 T10121090  RH  056%=      5-min Rain = 0
KNH1 120119Z 02011KT M01/M09 A3053 RMK A01 T10131089  RH  056%=      5-min Rain = 0
KNH1 120120Z 03010KT M01/M09 A3054 RMK A01 T10131089  RH  056%=      5-min Rain = 0
KNH1 120121Z 03009KT M01/M09 A3054 RMK A01 T10131089  RH  056%=      5-min Rain = 0
KNH1 120122Z 03008KT M01/M09 A3054 RMK A01 T10131088  RH  057%=      5-min Rain = 0
KNH1 120123Z 02011G16KT M01/M09 A3054 RMK A01 T10131087  RH  057%=      5-min Rain = 0
KNH1 120124Z 03012KT M01/M09 A3054 RMK A01 T10141091  RH  056%=      5-min Rain = 0
KNH1 120125Z 03011KT M01/M09 A3054 RMK A01 T10131092  RH  055%=      5-min Rain = 0
KNH1 120126Z 02010KT M01/M09 A3054 RMK A01 T10131092  RH  055%=      5-min Rain = 0
KNH1 120127Z 02012KT M01/M09 A3054 RMK A01 T10131091  RH  055%=      5-min Rain = 0
KNH1 120128Z 01011KT M01/M09 A3054 RMK A01 T10131091  RH  055%=      5-min Rain = 0
KNH1 120129Z 02010G15KT M01/M09 A3054 RMK A01 T10131091  RH  055%=      5-min Rain = 0
KNH1 120130Z 02010KT M01/M09 A3054 RMK A01 T10131090  RH  056%=      5-min Rain = 0
KNH1 120131Z 02011KT M01/M09 A3055 RMK A01 T10131090  RH  056%=      5-min Rain = 0
KNH1 120132Z 03008KT M01/M09 A3054 RMK A01 T10131089  RH  056%=      5-min Rain = 0
KNH1 120133Z 03009G14KT M01/M09 A3055 RMK A01 T10131088  RH  057%=      5-min Rain = 0
KNH1 120134Z 02014G21KT M01/M09 A3054 RMK A01 T10131091  RH  056%=      5-min Rain = 0
KNH1 120135Z 02015G21KT M01/M09 A3055 RMK A01 T10131093  RH  054%=      5-min Rain = 0
KNH1 120136Z 03013G21KT M01/M09 A3055 RMK A01 T10131093  RH  054%=      5-min Rain = 0
KNH1 120137Z 03014KT M01/M09 A3055 RMK A01 T10131094  RH  054%=      5-min Rain = 0
KNH1 120138Z 03012KT M01/M10 A3055 RMK A01 T10131095  RH  054%=      5-min Rain = 0
KNH1 120139Z 03012KT M01/M09 A3055 RMK A01 T10131094  RH  054%=      5-min Rain = 0
KNH1 120140Z 02015G20KT M01/M09 A3055 RMK A01 T10141094  RH  054%=      5-min Rain = 0
KNH1 120141Z 02015KT M01/M10 A3055 RMK A01 T10131096  RH  053%=      5-min Rain = 0
KNH1 120142Z 03015G20KT M01/M10 A3055 RMK A01 T10141098  RH  053%=      5-min Rain = 0
KNH1 120143Z 03016G22KT M01/M10 A3055 RMK A01 T10141099  RH  052%=      5-min Rain = 0
KNH1 120144Z 03015KT M02/M10 A3055 RMK A01 T10151100  RH  052%=      5-min Rain = 0
KNH1 120145Z 02016KT M02/M10 A3055 RMK A01 T10151099  RH  053%=      5-min Rain = 0
KNH1 120146Z 02016G21KT M02/M10 A3055 RMK A01 T10151099  RH  053%=      5-min Rain = 0
KNH1 120147Z 02014KT M02/M10 A3055 RMK A01 T10161100  RH  053%=      5-min Rain = 0
KNH1 120148Z 02013G21KT M02/M10 A3055 RMK A01 T10161100  RH  053%=      5-min Rain = 0
KNH1 120149Z 02015KT M02/M10 A3055 RMK A01 T10171100  RH  053%=      5-min Rain = 0
KNH1 120150Z 02012KT M02/M10 A3055 RMK A01 T10171101  RH  053%=      5-min Rain = 0
KNH1 120151Z 02012KT M02/M10 A3056 RMK A01 T10171099  RH  054%=      5-min Rain = 0
KNH1 120152Z 02013KT M02/M10 A3056 RMK A01 T10181098  RH  054%=      5-min Rain = 0
KNH1 120153Z 02012KT M02/M10 A3056 RMK A01 T10181099  RH  054%=      5-min Rain = 0
KNH1 120154Z 03011KT M02/M10 A3056 RMK A01 T10181099  RH  054%=      5-min Rain = 0
KNH1 120155Z 02011KT M02/M10 A3056 RMK A01 T10181098  RH  054%=      5-min Rain = 0
KNH1 120156Z 02015G21KT M02/M10 A3056 RMK A01 T10191099  RH  055%=      5-min Rain = 0
KNH1 120157Z 02016G21KT M02/M10 A3056 RMK A01 T10191100  RH  054%=      5-min Rain = 0
KNH1 120158Z 02016KT M02/M10 A3056 RMK A01 T10191102  RH  053%=      5-min Rain = 0
KNH1 120159Z 03016G25KT M02/M10 A3056 RMK A01 T10191104  RH  052%=      5-min Rain = 0
KNH1 120200Z 02014KT M02/M11 A3056 RMK A01 T10201105  RH  052%=      5-min Rain = 0
KNH1 120201Z 03016KT M02/M11 A3056 RMK A01 T10201105  RH  052%=      5-min Rain = 0
KNH1 120202Z 03014KT M02/M10 A3056 RMK A01 T10201104  RH  052%=      5-min Rain = 0
KNH1 120203Z 03012G17KT M02/M10 A3056 RMK A01 T10201103  RH  053%=      5-min Rain = 0
KNH1 120204Z 03017G22KT M02/M10 A3056 RMK A01 T10201104  RH  053%=      5-min Rain = 0
KNH1 120205Z 02017G22KT M02/M11 A3056 RMK A01 T10201107  RH  051%=      5-min Rain = 0
KNH1 120206Z 03017KT M02/M11 A3055 RMK A01 T10201108  RH  051%=      5-min Rain = 0
KNH1 120207Z 03015G20KT M02/M11 A3055 RMK A01 T10201109  RH  051%=      5-min Rain = 0
KNH1 120208Z 03015G20KT M02/M11 A3055 RMK A01 T10201108  RH  051%=      5-min Rain = 0
KNH1 120209Z 03012KT M02/M11 A3056 RMK A01 T10211106  RH  052%=      5-min Rain = 0
KNH1 120210Z 02011G17KT M02/M11 A3056 RMK A01 T10211105  RH  052%=      5-min Rain = 0
KNH1 120211Z 03015KT M02/M11 A3056 RMK A01 T10211105  RH  052%=      5-min Rain = 0
KNH1 120212Z 03016KT M02/M11 A3056 RMK A01 T10211106  RH  052%=      5-min Rain = 0
KNH1 120213Z 03012KT M02/M11 A3056 RMK A01 T10211108  RH  051%=      5-min Rain = 0
KNH1 120214Z 03014G21KT M02/M11 A3056 RMK A01 T10211107  RH  052%=      5-min Rain = 0
KNH1 120215Z 03014KT M02/M11 A3056 RMK A01 T10211107  RH  052%=      5-min Rain = 0
KNH1 120216Z 03016G21KT M02/M11 A3056 RMK A01 T10211107  RH  052%=      5-min Rain = 0
KNH1 120217Z 03017G22KT M02/M11 A3056 RMK A01 T10211110  RH  050%=      5-min Rain = 0
KNH1 120218Z 03016KT M02/M11 A3056 RMK A01 T10221111  RH  050%=      5-min Rain = 0
KNH1 120219Z 03017KT M02/M11 A3056 RMK A01 T10221111  RH  051%=      5-min Rain = 0
KNH1 120220Z 03016KT M02/M11 A3056 RMK A01 T10221112  RH  050%=      5-min Rain = 0
KNH1 120221Z 03017KT M02/M11 A3055 RMK A01 T10221112  RH  050%=      5-min Rain = 0
KNH1 120222Z 03014KT M02/M11 A3056 RMK A01 T10221112  RH  050%=      5-min Rain = 0
KNH1 120223Z 03012KT M02/M11 A3056 RMK A01 T10221111  RH  051%=      5-min Rain = 0
KNH1 120224Z 03011KT M02/M11 A3056 RMK A01 T10231110  RH  051%=      5-min Rain = 0
KNH1 120225Z 03015KT M02/M11 A3056 RMK A01 T10231109  RH  052%=      5-min Rain = 0
KNH1 120226Z 03015KT M02/M11 A3056 RMK A01 T10231110  RH  051%=      5-min Rain = 0
KNH1 120227Z 02016KT M02/M11 A3056 RMK A01 T10231112  RH  051%=      5-min Rain = 0
KNH1 120228Z 03015KT M02/M11 A3056 RMK A01 T10231113  RH  050%=      5-min Rain = 0
KNH1 120229Z 03013KT M02/M11 A3056 RMK A01 T10231113  RH  050%=      5-min Rain = 0
KNH1 120230Z 03011KT M02/M11 A3056 RMK A01 T10241112  RH  051%=      5-min Rain = 0
KNH1 120231Z 02011KT M02/M11 A3056 RMK A01 T10231110  RH  051%=      5-min Rain = 0
KNH1 120232Z 03012KT M02/M11 A3056 RMK A01 T10241109  RH  052%=      5-min Rain = 0
KNH1 120233Z 02012KT M02/M11 A3056 RMK A01 T10241109  RH  052%=      5-min Rain = 0
KNH1 120234Z 03012KT M02/M11 A3056 RMK A01 T10241110  RH  052%=      5-min Rain = 0
KNH1 120235Z 03011G16KT M02/M11 A3056 RMK A01 T10241108  RH  053%=      5-min Rain = 0
KNH1 120236Z 03011KT M03/M11 A3056 RMK A01 T10251108  RH  053%=      5-min Rain = 0
KNH1 120237Z 03012KT M03/M11 A3056 RMK A01 T10251109  RH  053%=      5-min Rain = 0
KNH1 120238Z 02012KT M03/M11 A3056 RMK A01 T10251109  RH  052%=      5-min Rain = 0
KNH1 120239Z 03010KT M03/M11 A3056 RMK A01 T10251109  RH  052%=      5-min Rain = 0
KNH1 120240Z 02012G17KT M03/M11 A3056 RMK A01 T10251109  RH  053%=      5-min Rain = 0
KNH1 120241Z 03016KT M03/M11 A3057 RMK A01 T10251111  RH  052%=      5-min Rain = 0
KNH1 120242Z 03014G19KT M03/M11 A3057 RMK A01 T10251114  RH  051%=      5-min Rain = 0
KNH1 120243Z 02014KT M03/M11 A3057 RMK A01 T10251113  RH  051%=      5-min Rain = 0
KNH1 120244Z 03012KT M03/M11 A3057 RMK A01 T10251113  RH  051%=      5-min Rain = 0
KNH1 120245Z 03012KT M03/M11 A3057 RMK A01 T10251114  RH  051%=      5-min Rain = 0
KNH1 120246Z 03013KT M03/M11 A3057 RMK A01 T10251114  RH  051%=      5-min Rain = 0
KNH1 120247Z 03010G15KT M03/M11 A3057 RMK A01 T10251114  RH  051%=      5-min Rain = 0
KNH1 120248Z 03012KT M03/M11 A3057 RMK A01 T10261111  RH  052%=      5-min Rain = 0
KNH1 120249Z 03010KT M03/M11 A3057 RMK A01 T10261110  RH  052%=      5-min Rain = 0
KNH1 120250Z 02011KT M03/M11 A3057 RMK A01 T10261109  RH  053%=      5-min Rain = 0
KNH1 120251Z 03013KT M03/M11 A3057 RMK A01 T10261110  RH  053%=      5-min Rain = 0
KNH1 120252Z 03010KT M03/M11 A3057 RMK A01 T10261111  RH  052%=      5-min Rain = 0
KNH1 120253Z 03011G17KT M03/M11 A3057 RMK A01 T10261110  RH  052%=      5-min Rain = 0
KNH1 120254Z 03014KT M03/M11 A3057 RMK A01 T10261113  RH  051%=      5-min Rain = 0
KNH1 120255Z 03013KT M03/M11 A3057 RMK A01 T10261114  RH  051%=      5-min Rain = 0
KNH1 120256Z 03011KT M03/M11 A3057 RMK A01 T10261114  RH  051%=      5-min Rain = 0
KNH1 120257Z 03010KT M03/M11 A3057 RMK A01 T10271113  RH  051%=      5-min Rain = 0
KNH1 120258Z 04010KT M03/M11 A3057 RMK A01 T10271113  RH  051%=      5-min Rain = 0
KNH1 120259Z 03010KT M03/M11 A3057 RMK A01 T10271113  RH  052%=      5-min Rain = 0
KNH1 120300Z 03010KT M03/M11 A3057 RMK A01 T10271112  RH  052%=      5-min Rain = 0
KNH1 120301Z 02013KT M03/M11 A3057 RMK A01 T10281113  RH  052%=      5-min Rain = 0
KNH1 120302Z 02011KT M03/M11 A3057 RMK A01 T10281114  RH  051%=      5-min Rain = 0
KNH1 120303Z 03010KT M03/M11 A3057 RMK A01 T10281114  RH  051%=      5-min Rain = 0
KNH1 120304Z 04012KT M03/M11 A3057 RMK A01 T10281112  RH  052%=      5-min Rain = 0
KNH1 120305Z 03011KT M03/M11 A3057 RMK A01 T10281113  RH  052%=      5-min Rain = 0
KNH1 120306Z 03009KT M03/M11 A3057 RMK A01 T10281113  RH  052%=      5-min Rain = 0
KNH1 120307Z 03010KT M03/M11 A3058 RMK A01 T10281112  RH  052%=      5-min Rain = 0
KNH1 120308Z 03012KT M03/M11 A3058 RMK A01 T10281113  RH  052%=      5-min Rain = 0
KNH1 120309Z 04012KT M03/M11 A3058 RMK A01 T10281114  RH  051%=      5-min Rain = 0
KNH1 120310Z 03010G15KT M03/M12 A3058 RMK A01 T10281115  RH  051%=      5-min Rain = 0
KNH1 120311Z 03011G17KT M03/M12 A3058 RMK A01 T10281115  RH  051%=      5-min Rain = 0
KNH1 120312Z 02009KT M03/M12 A3058 RMK A01 T10281116  RH  051%=      5-min Rain = 0
KNH1 120313Z 03012KT M03/M12 A3058 RMK A01 T10281115  RH  051%=      5-min Rain = 0
KNH1 120314Z 03011KT M03/M12 A3058 RMK A01 T10281116  RH  051%=      5-min Rain = 0
KNH1 120315Z 02011G18KT M03/M12 A3058 RMK A01 T10281117  RH  051%=      5-min Rain = 0
KNH1 120316Z 02013KT M03/M12 A3058 RMK A01 T10281117  RH  050%=      5-min Rain = 0
KNH1 120317Z 03012KT M03/M12 A3058 RMK A01 T10281117  RH  050%=      5-min Rain = 0
KNH1 120318Z 03013KT M03/M12 A3058 RMK A01 T10281118  RH  050%=      5-min Rain = 0
KNH1 120319Z 03014KT M03/M12 A3058 RMK A01 T10281119  RH  050%=      5-min Rain = 0
KNH1 120320Z 03011KT M03/M12 A3058 RMK A01 T10281119  RH  050%=      5-min Rain = 0
KNH1 120321Z 03012KT M03/M12 A3059 RMK A01 T10281118  RH  050%=      5-min Rain = 0
KNH1 120322Z 03011KT M03/M12 A3059 RMK A01 T10291118  RH  050%=      5-min Rain = 0
KNH1 120323Z 03010KT M03/M12 A3059 RMK A01 T10291117  RH  051%=      5-min Rain = 0
KNH1 120324Z 03011KT M03/M12 A3059 RMK A01 T10291116  RH  051%=      5-min Rain = 0
KNH1 120325Z 03013KT M03/M12 A3059 RMK A01 T10291118  RH  050%=      5-min Rain = 0
KNH1 120326Z 03012KT M03/M12 A3059 RMK A01 T10291119  RH  050%=      5-min Rain = 0
KNH1 120327Z 03011KT M03/M12 A3059 RMK A01 T10291117  RH  051%=      5-min Rain = 0
KNH1 120328Z 03010KT M03/M12 A3059 RMK A01 T10291115  RH  051%=      5-min Rain = 0
KNH1 120329Z 03008KT M03/M11 A3059 RMK A01 T10301114  RH  052%=      5-min Rain = 0
KNH1 120330Z 03010KT M03/M11 A3059 RMK A01 T10301114  RH  052%=      5-min Rain = 0
KNH1 120331Z 02014KT M03/M12 A3059 RMK A01 T10301116  RH  051%=      5-min Rain = 0
KNH1 120332Z 02014G19KT M03/M12 A3059 RMK A01 T10301120  RH  050%=      5-min Rain = 0
KNH1 120333Z 02010KT M03/M12 A306 RMK A01 T10301121  RH  049%=      5-min Rain = 0
KNH1 120334Z 02011KT M03/M12 A306 RMK A01 T10301121  RH  050%=      5-min Rain = 0
KNH1 120335Z 02010KT M03/M12 A306 RMK A01 T10301120  RH  050%=      5-min Rain = 0
KNH1 120336Z 03009KT M03/M12 A306 RMK A01 T10301119  RH  050%=      5-min Rain = 0
KNH1 120337Z 03010KT M03/M12 A306 RMK A01 T10301119  RH  051%=      5-min Rain = 0
KNH1 120338Z 02010KT M03/M12 A306 RMK A01 T10301118  RH  051%=      5-min Rain = 0
KNH1 120339Z 03008KT M03/M12 A306 RMK A01 T10311119  RH  051%=      5-min Rain = 0
KNH1 120340Z 02008KT M03/M12 A306 RMK A01 T10311116  RH  052%=      5-min Rain = 0
KNH1 120341Z 03011KT M03/M12 A3059 RMK A01 T10311117  RH  052%=      5-min Rain = 0
KNH1 120342Z 03010KT M03/M12 A3059 RMK A01 T10311119  RH  051%=      5-min Rain = 0
KNH1 120343Z 03011KT M03/M12 A3059 RMK A01 T10311119  RH  051%=      5-min Rain = 0
KNH1 120344Z 03010KT M03/M12 A3059 RMK A01 T10311121  RH  050%=      5-min Rain = 0
KNH1 120345Z 04009KT M03/M12 A3059 RMK A01 T10311119  RH  051%=      5-min Rain = 0
KNH1 120346Z 03008KT M03/M12 A3059 RMK A01 T10321118  RH  052%=      5-min Rain = 0
KNH1 120347Z 04007KT M03/M12 A3059 RMK A01 T10321116  RH  052%=      5-min Rain = 0
KNH1 120348Z 03009KT M03/M12 A3059 RMK A01 T10321115  RH  053%=      5-min Rain = 0
KNH1 120349Z 03008KT M03/M12 A3059 RMK A01 T10331116  RH  053%=      5-min Rain = 0
KNH1 120350Z 03008KT M03/M12 A3059 RMK A01 T10331116  RH  053%=      5-min Rain = 0
KNH1 120351Z 04008KT M03/M12 A306 RMK A01 T10331115  RH  053%=      5-min Rain = 0
KNH1 120352Z 03009KT M03/M12 A3059 RMK A01 T10331115  RH  053%=      5-min Rain = 0
KNH1 120353Z 03010KT M03/M12 A3059 RMK A01 T10331117  RH  052%=      5-min Rain = 0
KNH1 120354Z 03010KT M03/M12 A306 RMK A01 T10331119  RH  052%=      5-min Rain = 0
KNH1 120355Z 03008KT M03/M12 A306 RMK A01 T10331119  RH  051%=      5-min Rain = 0
KNH1 120356Z 03008KT M03/M12 A306 RMK A01 T10331117  RH  052%=      5-min Rain = 0
KNH1 120357Z 03008KT M03/M12 A306 RMK A01 T10331116  RH  053%=      5-min Rain = 0
KNH1 120358Z 03010KT M03/M12 A306 RMK A01 T10331116  RH  053%=      5-min Rain = 0
KNH1 120359Z 03011KT M03/M12 A306 RMK A01 T10331116  RH  052%=      5-min Rain = 0
KNH1 120400Z 02011KT M03/M12 A306 RMK A01 T10331118  RH  052%=      5-min Rain = 0
KNH1 120401Z 03009KT M03/M12 A306 RMK A01 T10331118  RH  052%=      5-min Rain = 0
KNH1 120402Z 03010KT M03/M12 A306 RMK A01 T10331118  RH  052%=      5-min Rain = 0
KNH1 120403Z 03011KT M03/M12 A306 RMK A01 T10331117  RH  052%=      5-min Rain = 0
KNH1 120404Z 03009KT M03/M12 A306 RMK A01 T10331118  RH  052%=      5-min Rain = 0
KNH1 120405Z 03011KT M03/M12 A306 RMK A01 T10331117  RH  052%=      5-min Rain = 0
KNH1 120406Z 02010KT M03/M12 A306 RMK A01 T10331119  RH  052%=      5-min Rain = 0
KNH1 120407Z 03010KT M03/M12 A306 RMK A01 T10331119  RH  052%=      5-min Rain = 0
KNH1 120408Z 03009KT M03/M12 A306 RMK A01 T10341119  RH  052%=      5-min Rain = 0
KNH1 120409Z 03009KT M03/M12 A306 RMK A01 T10341117  RH  052%=      5-min Rain = 0
KNH1 120410Z 03010KT M03/M12 A306 RMK A01 T10341116  RH  053%=      5-min Rain = 0
KNH1 120411Z 03010KT M03/M12 A306 RMK A01 T10341116  RH  053%=      5-min Rain = 0
KNH1 120412Z 03010KT M03/M12 A306 RMK A01 T10341117  RH  053%=      5-min Rain = 0
KNH1 120413Z 02010KT M03/M12 A306 RMK A01 T10341116  RH  053%=      5-min Rain = 0
KNH1 120414Z 03009KT M03/M12 A306 RMK A01 T10341116  RH  053%=      5-min Rain = 0
KNH1 120415Z 03011KT M04/M12 A306 RMK A01 T10351117  RH  053%=      5-min Rain = 0
KNH1 120416Z 03010KT M04/M12 A306 RMK A01 T10351117  RH  053%=      5-min Rain = 0
KNH1 120417Z 03009KT M04/M12 A306 RMK A01 T10351117  RH  053%=      5-min Rain = 0
KNH1 120418Z 04010KT M04/M12 A306 RMK A01 T10351116  RH  053%=      5-min Rain = 0
KNH1 120419Z 03009KT M04/M12 A306 RMK A01 T10351116  RH  053%=      5-min Rain = 0
KNH1 120420Z 02009G14KT M04/M12 A306 RMK A01 T10351117  RH  053%=      5-min Rain = 0
KNH1 120421Z 03008KT M04/M12 A306 RMK A01 T10351117  RH  053%=      5-min Rain = 0
KNH1 120422Z 02011KT M04/M12 A306 RMK A01 T10351117  RH  053%=      5-min Rain = 0
KNH1 120423Z 03012KT M04/M12 A306 RMK A01 T10351120  RH  052%=      5-min Rain = 0
KNH1 120424Z 02013KT M04/M12 A306 RMK A01 T10351123  RH  051%=      5-min Rain = 0
KNH1 120425Z 03009KT M04/M12 A306 RMK A01 T10351124  RH  050%=      5-min Rain = 0
KNH1 120426Z 02011KT M04/M12 A306 RMK A01 T10351124  RH  050%=      5-min Rain = 0
KNH1 120427Z 03010KT M04/M13 A306 RMK A01 T10351125  RH  050%=      5-min Rain = 0
KNH1 120428Z 02009KT M04/M12 A306 RMK A01 T10351123  RH  050%=      5-min Rain = 0
KNH1 120429Z 02010KT M04/M12 A306 RMK A01 T10351122  RH  051%=      5-min Rain = 0
KNH1 120430Z 03007KT M04/M12 A306 RMK A01 T10351122  RH  051%=      5-min Rain = 0
KNH1 120431Z 03007KT M04/M12 A306 RMK A01 T10361121  RH  052%=      5-min Rain = 0
KNH1 120432Z 03007KT M04/M12 A306 RMK A01 T10361119  RH  053%=      5-min Rain = 0
KNH1 120433Z 03006KT M04/M12 A306 RMK A01 T10361117  RH  054%=      5-min Rain = 0
KNH1 120434Z 04005KT M04/M12 A306 RMK A01 T10371116  RH  054%=      5-min Rain = 0
KNH1 120435Z 04007KT M04/M12 A306 RMK A01 T10371115  RH  055%=      5-min Rain = 0
KNH1 120436Z 04007KT M04/M12 A306 RMK A01 T10371115  RH  055%=      5-min Rain = 0
KNH1 120437Z 03006KT M04/M11 A306 RMK A01 T10381114  RH  055%=      5-min Rain = 0
KNH1 120438Z 03007KT M04/M11 A306 RMK A01 T10381114  RH  055%=      5-min Rain = 0
KNH1 120439Z 03006KT M04/M11 A306 RMK A01 T10381114  RH  056%=      5-min Rain = 0
KNH1 120440Z 03007KT M04/M11 A306 RMK A01 T10381114  RH  056%=      5-min Rain = 0
KNH1 120441Z 04008KT M04/M12 A306 RMK A01 T10381115  RH  055%=      5-min Rain = 0
KNH1 120442Z 03011KT M04/M12 A306 RMK A01 T10381117  RH  054%=      5-min Rain = 0
KNH1 120443Z 03009KT M04/M12 A306 RMK A01 T10381121  RH  053%=      5-min Rain = 0
KNH1 120444Z 04008KT M04/M12 A306 RMK A01 T10381120  RH  053%=      5-min Rain = 0
KNH1 120445Z 03008KT M04/M12 A306 RMK A01 T10381119  RH  053%=      5-min Rain = 0
KNH1 120446Z 03008KT M04/M12 A306 RMK A01 T10381119  RH  053%=      5-min Rain = 0
KNH1 120447Z 04008KT M04/M12 A306 RMK A01 T10381120  RH  053%=      5-min Rain = 0
KNH1 120448Z 03007KT M04/M12 A306 RMK A01 T10381119  RH  053%=      5-min Rain = 0
KNH1 120449Z 03008KT M04/M12 A306 RMK A01 T10381119  RH  054%=      5-min Rain = 0
KNH1 120450Z 03008KT M04/M12 A306 RMK A01 T10391120  RH  053%=      5-min Rain = 0
KNH1 120451Z 03007KT M04/M12 A306 RMK A01 T10381121  RH  053%=      5-min Rain = 0
KNH1 120452Z 03010KT M04/M12 A306 RMK A01 T10391121  RH  053%=      5-min Rain = 0
KNH1 120453Z 03007KT M04/M12 A306 RMK A01 T10391121  RH  053%=      5-min Rain = 0
KNH1 120454Z 04006KT M04/M12 A306 RMK A01 T10391120  RH  053%=      5-min Rain = 0
KNH1 120455Z 03007KT M04/M12 A306 RMK A01 T10391120  RH  054%=      5-min Rain = 0
KNH1 120456Z 03006KT M04/M12 A306 RMK A01 T10391120  RH  054%=      5-min Rain = 0
KNH1 120457Z 03009KT M04/M12 A306 RMK A01 T10391121  RH  053%=      5-min Rain = 0
KNH1 120458Z 03008KT M04/M12 A306 RMK A01 T10391121  RH  053%=      5-min Rain = 0
KNH1 120459Z 03007KT M04/M12 A306 RMK A01 T10391121  RH  053%=      5-min Rain = 0
KNH1 120500Z 03007KT M04/M12 A306 RMK A01 T10391120  RH  053%=      5-min Rain = 0
KNH1 120501Z 03008KT M04/M12 A306 RMK A01 T10401120  RH  053%=      5-min Rain = 0
KNH1 120502Z 03008KT M04/M12 A306 RMK A01 T10391121  RH  053%=      5-min Rain = 0
KNH1 120503Z 03008KT M04/M12 A306 RMK A01 T10391121  RH  053%=      5-min Rain = 0
KNH1 120504Z 04007KT M04/M12 A306 RMK A01 T10401121  RH  053%=      5-min Rain = 0
KNH1 120505Z 03008KT M04/M12 A306 RMK A01 T10391121  RH  053%=      5-min Rain = 0
KNH1 120506Z 04008KT M04/M12 A306 RMK A01 T10391121  RH  053%=      5-min Rain = 0
KNH1 120507Z 03007KT M04/M12 A306 RMK A01 T10401121  RH  053%=      5-min Rain = 0
KNH1 120508Z 03008KT M04/M12 A306 RMK A01 T10401121  RH  053%=      5-min Rain = 0
KNH1 120509Z 05008KT M04/M12 A306 RMK A01 T10401121  RH  053%=      5-min Rain = 0
KNH1 120510Z 04008KT M04/M12 A306 RMK A01 T10401121  RH  053%=      5-min Rain = 0
KNH1 120511Z 04007KT M04/M12 A3061 RMK A01 T10401121  RH  053%=      5-min Rain = 0
KNH1 120512Z 03008KT M04/M12 A3061 RMK A01 T10401122  RH  053%=      5-min Rain = 0
KNH1 120513Z 03006KT M04/M12 A3061 RMK A01 T10401121  RH  053%=      5-min Rain = 0
KNH1 120514Z 03008KT M04/M12 A3061 RMK A01 T10401119  RH  054%=      5-min Rain = 0
KNH1 120515Z 04009KT M04/M12 A3061 RMK A01 T10411121  RH  054%=      5-min Rain = 0
KNH1 120516Z 04008KT M04/M12 A3061 RMK A01 T10411123  RH  053%=      5-min Rain = 0
KNH1 120517Z 03007KT M04/M12 A3061 RMK A01 T10401122  RH  053%=      5-min Rain = 0
KNH1 120518Z 03006KT M04/M12 A3061 RMK A01 T10401122  RH  053%=      5-min Rain = 0
KNH1 120519Z 03007KT M04/M12 A3061 RMK A01 T10411122  RH  053%=      5-min Rain = 0
KNH1 120520Z 03008KT M04/M12 A3061 RMK A01 T10401122  RH  053%=      5-min Rain = 0
KNH1 120521Z 03010KT M04/M12 A3061 RMK A01 T10411123  RH  053%=      5-min Rain = 0
KNH1 120522Z 03009KT M04/M13 A3061 RMK A01 T10411126  RH  052%=      5-min Rain = 0
KNH1 120523Z 03008KT M04/M13 A3061 RMK A01 T10411126  RH  052%=      5-min Rain = 0
KNH1 120524Z 04008KT M04/M13 A3061 RMK A01 T10411126  RH  052%=      5-min Rain = 0
KNH1 120525Z 03007KT M04/M13 A3061 RMK A01 T10411125  RH  052%=      5-min Rain = 0
KNH1 120526Z 03006KT M04/M12 A3061 RMK A01 T10411123  RH  053%=      5-min Rain = 0
KNH1 120527Z 03007KT M04/M12 A3061 RMK A01 T10411122  RH  054%=      5-min Rain = 0
KNH1 120528Z 03006KT M04/M12 A3061 RMK A01 T10411121  RH  054%=      5-min Rain = 0
KNH1 120529Z 04006KT M04/M12 A3061 RMK A01 T10421120  RH  054%=      5-min Rain = 0
KNH1 120530Z 04006KT M04/M12 A3061 RMK A01 T10421120  RH  055%=      5-min Rain = 0
KNH1 120531Z 03007KT M04/M12 A3061 RMK A01 T10421121  RH  054%=      5-min Rain = 0
KNH1 120532Z 04008KT M04/M12 A3061 RMK A01 T10421121  RH  054%=      5-min Rain = 0
KNH1 120533Z 04009KT M04/M12 A3061 RMK A01 T10421122  RH  054%=      5-min Rain = 0
KNH1 120534Z 04009KT M04/M12 A3061 RMK A01 T10421123  RH  053%=      5-min Rain = 0
KNH1 120535Z 03008KT M04/M12 A3061 RMK A01 T10421124  RH  053%=      5-min Rain = 0
KNH1 120536Z 03007KT M04/M12 A3061 RMK A01 T10421123  RH  053%=      5-min Rain = 0
KNH1 120537Z 03007KT M04/M12 A3061 RMK A01 T10431123  RH  054%=      5-min Rain = 0
KNH1 120538Z 03009KT M04/M12 A3061 RMK A01 T10431122  RH  054%=      5-min Rain = 0
KNH1 120539Z 03007KT M04/M12 A3061 RMK A01 T10431123  RH  053%=      5-min Rain = 0
KNH1 120540Z 02008KT M04/M12 A3061 RMK A01 T10431123  RH  054%=      5-min Rain = 0
KNH1 120541Z 03006KT M04/M12 A3061 RMK A01 T10431123  RH  054%=      5-min Rain = 0
KNH1 120542Z 03007KT M04/M12 A3061 RMK A01 T10431120  RH  055%=      5-min Rain = 0
KNH1 120543Z 03010KT M04/M12 A3061 RMK A01 T10441121  RH  055%=      5-min Rain = 0
KNH1 120544Z 03008KT M04/M12 A3061 RMK A01 T10441123  RH  054%=      5-min Rain = 0
KNH1 120545Z 03009KT M04/M12 A3061 RMK A01 T10431123  RH  054%=      5-min Rain = 0
KNH1 120546Z 03010KT M04/M12 A3061 RMK A01 T10431124  RH  053%=      5-min Rain = 0
KNH1 120547Z 02012KT M04/M13 A3061 RMK A01 T10431125  RH  053%=      5-min Rain = 0
KNH1 120548Z 02011KT M04/M13 A3061 RMK A01 T10431127  RH  052%=      5-min Rain = 0
KNH1 120549Z 03008KT M04/M13 A3061 RMK A01 T10431128  RH  051%=      5-min Rain = 0
KNH1 120550Z 03010KT M04/M13 A3061 RMK A01 T10431127  RH  052%=      5-min Rain = 0
KNH1 120551Z 03009G17KT M04/M13 A3061 RMK A01 T10431127  RH  052%=      5-min Rain = 0
KNH1 120552Z 03012KT M04/M13 A3061 RMK A01 T10431129  RH  051%=      5-min Rain = 0
KNH1 120553Z 03011KT M04/M13 A3061 RMK A01 T10431132  RH  050%=      5-min Rain = 0
KNH1 120554Z 03010KT M04/M13 A3061 RMK A01 T10431131  RH  050%=      5-min Rain = 0
KNH1 120555Z 04009KT M04/M13 A3061 RMK A01 T10431131  RH  050%=      5-min Rain = 0
KNH1 120556Z 03008KT M04/M13 A3061 RMK A01 T10431129  RH  051%=      5-min Rain = 0
KNH1 120557Z 03009KT M04/M13 A3061 RMK A01 T10441130  RH  051%=      5-min Rain = 0
KNH1 120558Z 03009KT M04/M13 A3061 RMK A01 T10441130  RH  051%=      5-min Rain = 0
KNH1 120559Z 03011KT M04/M13 A3061 RMK A01 T10441130  RH  051%=      5-min Rain = 0

Page generated in 0.122 seconds.